M I D A S
Marine Information and Data Acquisition System
Tripno 1680 of the Zeeleeuw from 2009-04-23 11:40:05 to 2009-04-23 13:59:39
Back to CruiseResearch ActivitiesStationsMapUnderway DataData graphs

EquipmentUnitsComment
TimeDGPSUTC
LatitudeDGPSDM.mWGS84
LongitudeDGPSDM.mWGS84
TemperatureSBE03/SBE38deg celciusITS90
ConductivitySBE21S/mITS90
SalinitySBE21 Practical Salinity Units
ChlorophylAChelsea fluorimeterg/lCalibrated in Aceton
Missing or incorrect values are displayed as -999
Sea surface data collected by the RV Zeeleeuw from 2009-04-23 07:44:55 to 2009-04-23 14:07:14
                                                                                    Next 1000 lines
Time Latitude Longitude Temperature Conductivity Salinity ChlorophylA
2009-04-23 07:45:04 51°13.663 2°55.954 -999 0.035622 0.196588 -1.035392
2009-04-23 07:45:10 51°13.664 2°55.95 -999 0.036857 0.203522 -1.035392
2009-04-23 07:45:15 51°13.665 2°55.947 -999 0.037371 0.206416 -1.035392
2009-04-23 07:45:20 51°13.666 2°55.943 -999 0.037371 0.206416 -1.035392
2009-04-23 07:45:26 51°13.668 2°55.937 -999 0.037371 0.206424 -1.035392
2009-04-23 07:45:32 51°13.67 2°55.932 -999 0.037474 0.207002 -1.035392
2009-04-23 07:45:37 51°13.671 2°55.926 -999 0.037371 0.206427 -1.035392
2009-04-23 07:45:43 51°13.673 2°55.92 -999 0.037474 0.207005 -1.035392
2009-04-23 07:45:48 51°13.674 2°55.915 -999 0.037577 0.207587 -1.070216
2009-04-23 07:45:54 51°13.676 2°55.908 -999 0.037577 0.20759 -1.035392
2009-04-23 07:45:58 51°13.677 2°55.904 -999 0.037577 0.20759 -1.035392
2009-04-23 07:46:03 51°13.678 2°55.898 -999 0.037577 0.20759 -1.035392
2009-04-23 07:46:08 51°13.68 2°55.892 -999 0.037474 0.207016 -1.035392
2009-04-23 07:46:14 51°13.681 2°55.884 -999 0.037577 0.207594 -1.035392
2009-04-23 07:46:18 51°13.682 2°55.879 -999 0.037577 0.207598 -1.035392
2009-04-23 07:46:23 51°13.683 2°55.873 -999 0.037577 0.207598 -1.035392
2009-04-23 07:46:28 51°13.684 2°55.867 -999 0.03768 0.208183 -1.035392
2009-04-23 07:46:34 51°13.686 2°55.859 -999 0.037783 0.208768 -1.035392
2009-04-23 07:46:39 51°13.687 2°55.852 -999 0.037886 0.20935 -1.035392
2009-04-23 07:46:43 51°13.687 2°55.847 -999 0.037783 0.20878 -1.035392
2009-04-23 07:46:48 51°13.688 2°55.841 -999 0.03768 0.208201 -1.035392
2009-04-23 07:46:53 51°13.689 2°55.834 -999 0.03768 0.208201 -1.035392
2009-04-23 07:46:58 51°13.689 2°55.828 -999 0.03768 0.208205 -1.035392
2009-04-23 07:47:03 51°13.69 2°55.821 -999 0.037474 0.207049 -1.035392
2009-04-23 07:47:08 51°13.69 2°55.815 -999 0.037783 0.208791 -1.035392
2009-04-23 07:47:13 51°13.691 2°55.809 -999 0.03768 0.208216 -1.035392
2009-04-23 07:47:18 51°13.691 2°55.802 -999 0.037577 0.207638 -1.035392
2009-04-23 07:47:23 51°13.692 2°55.796 -999 0.03768 0.20822 -1.035392
2009-04-23 07:47:28 51°13.692 2°55.79 -999 0.03768 0.20822 -1.035392
2009-04-23 07:47:33 51°13.692 2°55.784 -999 0.037783 0.208802 -1.035392
2009-04-23 07:47:38 51°13.693 2°55.779 -999 0.037989 0.209966 -1.035392
2009-04-23 07:47:43 51°13.693 2°55.774 -999 0.037783 0.208809 -1.035392
2009-04-23 07:47:48 51°13.693 2°55.77 -999 0.03768 0.208231 -1.035392
2009-04-23 07:47:52 51°13.693 2°55.766 -999 0.037989 0.209973 -1.035392
2009-04-23 07:47:57 51°13.693 2°55.762 -999 0.037989 0.209973 -1.035392
2009-04-23 07:48:02 51°13.693 2°55.759 -999 0.0384 0.212295 -1.035392
2009-04-23 07:48:07 51°13.694 2°55.756 -999 0.038092 0.210567 -1.070216
2009-04-23 07:48:12 51°13.694 2°55.754 -999 0.038194 0.211149 -1.035392
2009-04-23 07:48:16 51°13.694 2°55.754 -999 0.038709 0.214058 -1.035392
2009-04-23 07:48:21 51°13.695 2°55.754 -999 0.038709 0.214058 -1.035392
2009-04-23 07:48:26 51°13.695 2°55.754 -999 0.038812 0.214645 -1.035392
2009-04-23 07:48:31 51°13.696 2°55.755 -999 0.038812 0.214649 -1.035392
2009-04-23 07:48:36 51°13.698 2°55.756 -999 0.038915 0.215232 -1.035392
2009-04-23 07:48:41 51°13.699 2°55.757 -999 0.038297 0.211758 -1.035392
2009-04-23 07:48:46 51°13.701 2°55.759 -999 0.037886 0.209436 -1.035392
2009-04-23 07:48:51 51°13.702 2°55.76 -999 0.037268 0.205959 -1.035392
2009-04-23 07:48:55 51°13.703 2°55.76 -999 0.037268 0.205959 -1.035392
2009-04-23 07:49:00 51°13.704 2°55.761 -999 0.037474 0.207115 -1.035392
2009-04-23 07:49:05 51°13.704 2°55.761 -999 0.037783 0.20885 -1.035392
2009-04-23 07:49:10 51°13.704 2°55.761 -999 0.037165 0.205385 -1.035392
2009-04-23 07:49:15 51°13.704 2°55.76 -999 0.037783 0.208853 -1.035392
2009-04-23 07:49:20 51°13.703 2°55.76 -999 0.037577 0.207701 -1.035392
2009-04-23 07:49:24 51°13.703 2°55.76 -999 0.037577 0.207701 -1.035392
2009-04-23 07:49:30 51°13.703 2°55.76 -999 0.038297 0.211758 -1.035392
2009-04-23 07:49:34 51°13.703 2°55.759 -999 0.040047 0.221633 -1.035392
2009-04-23 07:49:40 51°13.704 2°55.759 -999 0.039944 0.221056 -1.035392
2009-04-23 07:49:44 51°13.706 2°55.759 -999 0.042208 0.233868 -1.035392
2009-04-23 07:49:50 51°13.71 2°55.758 -999 0.042105 0.233299 -1.035392
2009-04-23 07:49:55 51°13.713 2°55.756 -999 0.042105 0.233299 -1.035392
2009-04-23 07:50:00 51°13.716 2°55.754 -999 0.041179 0.228065 -1.035392
2009-04-23 07:50:04 51°13.719 2°55.751 -999 0.040767 0.225732 -1.035392
2009-04-23 07:50:10 51°13.724 2°55.746 -999 0.040767 0.225728 -1.035392
2009-04-23 07:50:15 51°13.728 2°55.741 -999 0.039944 0.22108 -1.035392
2009-04-23 07:50:20 51°13.733 2°55.734 -999 0.039944 0.22108 -1.035392
2009-04-23 07:50:24 51°13.737 2°55.729 -999 0.038297 0.211795 -1.035392
2009-04-23 07:50:30 51°13.744 2°55.721 -999 0.038606 0.213525 -1.035392
2009-04-23 07:50:35 51°13.751 2°55.714 -999 0.037989 0.210044 -1.035392
2009-04-23 07:50:40 51°13.757 2°55.706 -999 0.037989 0.210044 -1.035392
2009-04-23 07:50:44 51°13.763 2°55.7 -999 0.038709 0.214096 -1.035392
2009-04-23 07:50:50 51°13.772 2°55.69 -999 0.038092 0.210626 -1.035392
2009-04-23 07:50:55 51°13.779 2°55.682 -999 0.038092 0.210626 -1.035392
2009-04-23 07:51:00 51°13.787 2°55.674 -999 0.038297 0.211788 -1.035392
2009-04-23 07:51:04 51°13.794 2°55.667 -999 0.03768 0.208319 -1.035392
2009-04-23 07:51:10 51°13.804 2°55.658 -999 0.03768 0.208323 -1.035392
2009-04-23 07:51:15 51°13.813 2°55.65 -999 0.037165 0.205436 -1.035392
2009-04-23 07:51:19 51°13.82 2°55.644 -999 0.037062 0.204861 -1.035392
2009-04-23 07:51:24 51°13.829 2°55.636 -999 0.037062 0.204861 -1.035392
2009-04-23 07:51:29 51°13.838 2°55.628 -999 0.037165 0.205443 -1.035392
2009-04-23 07:51:35 51°13.849 2°55.618 -999 0.03768 0.208345 -1.035392
2009-04-23 07:51:39 51°13.857 2°55.612 -999 0.037062 0.204879 -1.035392
2009-04-23 07:51:45 51°13.868 2°55.602 -999 0.037062 0.204887 -1.035392
2009-04-23 07:51:50 51°13.878 2°55.594 -999 0.037062 0.204887 -1.035392
2009-04-23 07:51:55 51°13.887 2°55.586 -999 0.037062 0.204894 -1.035392
2009-04-23 07:51:59 51°13.895 2°55.58 -999 0.03768 0.208371 -1.035392
2009-04-23 07:52:05 51°13.907 2°55.571 -999 0.037165 0.205483 -1.035392
2009-04-23 07:52:10 51°13.917 2°55.564 -999 0.037268 0.206065 -1.035392
2009-04-23 07:52:15 51°13.928 2°55.556 -999 0.037165 0.20549 -1.035392
2009-04-23 07:52:19 51°13.936 2°55.55 -999 0.037165 0.20549 -1.035392
2009-04-23 07:52:25 51°13.948 2°55.541 -999 0.037886 0.209543 -1.035392
2009-04-23 07:52:30 51°13.959 2°55.534 -999 0.037577 0.207811 -1.035392
2009-04-23 07:52:35 51°13.969 2°55.526 -999 0.038194 0.211287 -1.035392
2009-04-23 07:52:39 51°13.978 2°55.52 -999 0.037989 0.210137 -1.035392
2009-04-23 07:52:45 51°13.991 2°55.511 -999 0.036857 0.203774 -1.035392
2009-04-23 07:52:50 51°14.001 2°55.503 -999 0.037371 0.206669 -1.035392
2009-04-23 07:52:55 51°14.012 2°55.495 -999 0.037371 0.206669 -1.035392
2009-04-23 07:52:59 51°14.021 2°55.489 -999 0.037268 0.206094 -1.035392
2009-04-23 07:53:05 51°14.034 2°55.479 -999 0.037474 0.207251 -1.035392
2009-04-23 07:53:10 51°14.045 2°55.472 -999 0.036857 0.203788 -1.035392
2009-04-23 07:53:15 51°14.056 2°55.464 -999 0.037474 0.207258 -1.035392
2009-04-23 07:53:20 51°14.067 2°55.456 -999 0.037474 0.207265 -1.035392
2009-04-23 07:53:24 51°14.076 2°55.449 -999 0.037474 0.207265 -1.035392
2009-04-23 07:53:30 51°14.09 2°55.44 -999 0.037268 0.206112 -1.035392
2009-04-23 07:53:35 51°14.1 2°55.431 -999 0.037989 0.210167 -1.035392
2009-04-23 07:53:40 51°14.111 2°55.423 -999 0.037886 0.209595 -1.035392
2009-04-23 07:53:44 51°14.121 2°55.417 -999 0.03696 0.204388 -1.035392
2009-04-23 07:53:50 51°14.134 2°55.406 -999 0.03696 0.204388 -1.035392
2009-04-23 07:53:55 51°14.145 2°55.397 -999 0.038297 0.211919 -1.035392
2009-04-23 07:54:00 51°14.156 2°55.387 -999 0.037783 0.209031 -1.035392
2009-04-23 07:54:05 51°14.166 2°55.377 -999 0.037989 0.210189 -1.035392
2009-04-23 07:54:10 51°14.177 2°55.367 -999 0.038194 0.211351 -1.035392
2009-04-23 07:54:15 51°14.187 2°55.356 -999 0.038812 0.21484 -1.035392
2009-04-23 07:54:20 51°14.198 2°55.345 -999 0.038606 0.213688 -1.035392
2009-04-23 07:54:24 51°14.206 2°55.336 -999 0.038606 0.213688 -1.035392
2009-04-23 07:54:30 51°14.217 2°55.321 -999 0.038915 0.215431 -1.035392
2009-04-23 07:54:35 51°14.227 2°55.309 -999 0.039738 0.22008 -1.035392
2009-04-23 07:54:39 51°14.235 2°55.298 -999 0.038709 0.214286 -1.035392
2009-04-23 07:54:44 51°14.244 2°55.285 -999 0.038092 0.210806 -1.035392
2009-04-23 07:54:50 51°14.254 2°55.268 -999 0.037371 0.206745 -1.035392
2009-04-23 07:54:55 51°14.263 2°55.254 -999 0.037371 0.206745 -1.035392
2009-04-23 07:55:00 51°14.271 2°55.239 -999 0.038297 0.211957 -1.035392
2009-04-23 07:55:05 51°14.28 2°55.224 -999 0.0384 0.212544 -1.035392
2009-04-23 07:55:10 51°14.288 2°55.209 -999 0.038812 0.21487 -1.035392
2009-04-23 07:55:15 51°14.297 2°55.194 -999 0.038606 0.213726 -1.035392
2009-04-23 07:55:20 51°14.305 2°55.179 -999 0.038606 0.213726 -1.035392
2009-04-23 07:55:24 51°14.312 2°55.167 -999 0.038915 0.215469 -1.035392
2009-04-23 07:55:30 51°14.321 2°55.147 -999 0.038812 0.214885 -1.070216
2009-04-23 07:55:35 51°14.329 2°55.131 -999 0.039018 0.216038 -1.035392
2009-04-23 07:55:40 51°14.337 2°55.114 -999 0.038709 0.214298 -1.035392
2009-04-23 07:55:44 51°14.344 2°55.101 -999 0.038503 0.213154 -1.035392
2009-04-23 07:55:50 51°14.353 2°55.079 -999 0.038503 0.213154 -1.035392
2009-04-23 07:55:55 51°14.36 2°55.062 -999 0.037165 0.205621 -1.070216
2009-04-23 07:56:00 51°14.367 2°55.043 -999 0.038709 0.214313 -1.035392
2009-04-23 07:56:04 51°14.373 2°55.029 -999 0.039944 0.221289 -1.035392
2009-04-23 07:56:10 51°14.382 2°55.007 -999 0.039841 0.220696 -1.070216
2009-04-23 07:56:15 51°14.39 2°54.988 -999 0.039326 0.217774 -1.035392
2009-04-23 07:56:20 51°14.397 2°54.969 -999 0.039532 0.218931 -1.035392
2009-04-23 07:56:25 51°14.404 2°54.949 -999 0.039532 0.218931 -1.035392
2009-04-23 07:56:30 51°14.41 2°54.929 -999 0.039018 0.21603 -1.035392
2009-04-23 07:56:35 51°14.416 2°54.908 -999 0.038709 0.214286 -1.035392
2009-04-23 07:56:39 51°14.421 2°54.892 -999 0.038709 0.21429 -1.070216
2009-04-23 07:56:44 51°14.427 2°54.87 -999 0.038297 0.211979 -1.035392
2009-04-23 07:56:50 51°14.433 2°54.844 -999 0.037989 0.210252 -1.035392
2009-04-23 07:56:55 51°14.439 2°54.822 -999 0.037989 0.210252 -1.035392
2009-04-23 07:56:59 51°14.443 2°54.804 -999 0.037165 0.205625 -1.035392
2009-04-23 07:57:04 51°14.45 2°54.782 -999 0.037989 0.210264 -1.070216
2009-04-23 07:57:10 51°14.457 2°54.755 -999 0.0384 0.212589 -1.035392
2009-04-23 07:57:15 51°14.463 2°54.732 -999 0.038503 0.21318 -1.035392
2009-04-23 07:57:19 51°14.468 2°54.714 -999 0.038503 0.21318 -1.035392
2009-04-23 07:57:25 51°14.476 2°54.688 -999 0.037886 0.209714 -1.035392
2009-04-23 07:57:30 51°14.482 2°54.666 -999 0.037989 0.210294 -1.035392
2009-04-23 07:57:35 51°14.489 2°54.644 -999 0.039018 0.216103 -1.035392
2009-04-23 07:57:40 51°14.496 2°54.622 -999 0.037886 0.209725 -1.035392
2009-04-23 07:57:44 51°14.501 2°54.604 -999 0.040047 0.221921 -1.035392
2009-04-23 07:57:50 51°14.509 2°54.578 -999 0.03768 0.208574 -1.035392
2009-04-23 07:57:55 51°14.516 2°54.557 -999 0.03768 0.208574 -1.035392
2009-04-23 07:58:00 51°14.522 2°54.537 -999 0.039532 0.219021 -1.035392
2009-04-23 07:58:04 51°14.527 2°54.523 -999 0.038812 0.214958 -1.035392
2009-04-23 07:58:10 51°14.534 2°54.502 -999 0.038915 0.215534 -1.035392
2009-04-23 07:58:15 51°14.539 2°54.486 -999 0.038812 0.21495 -1.035392
2009-04-23 07:58:20 51°14.544 2°54.47 -999 0.038606 0.21379 -1.035392
2009-04-23 07:58:24 51°14.548 2°54.459 -999 0.038606 0.21379 -1.035392
2009-04-23 07:58:30 51°14.554 2°54.441 -999 0.038503 0.213218 -1.035392
2009-04-23 07:58:35 51°14.559 2°54.428 -999 0.039944 0.221375 -1.035392
2009-04-23 07:58:40 51°14.564 2°54.414 -999 0.039532 0.219056 -1.035392
2009-04-23 07:58:45 51°14.568 2°54.402 -999 0.041179 0.228387 -1.035392
2009-04-23 07:58:50 51°14.573 2°54.389 -999 0.04087 0.226641 -1.035392
2009-04-23 07:58:55 51°14.577 2°54.377 -999 0.04087 0.226641 -1.035392
2009-04-23 07:59:00 51°14.582 2°54.364 -999 0.040561 0.224891 -1.035392
2009-04-23 07:59:04 51°14.586 2°54.354 -999 0.040561 0.224891 -1.035392
2009-04-23 07:59:10 51°14.591 2°54.337 -999 0.040664 0.225477 -1.035392
2009-04-23 07:59:15 51°14.595 2°54.323 -999 0.040047 0.221988 -1.035392
2009-04-23 07:59:20 51°14.6 2°54.308 -999 0.040047 0.221988 -1.035392
2009-04-23 07:59:24 51°14.604 2°54.295 -999 0.040767 0.226055 -1.035392
2009-04-23 07:59:30 51°14.61 2°54.276 -999 0.04087 0.226641 -1.035392
2009-04-23 07:59:35 51°14.615 2°54.259 -999 0.040561 0.224895 -1.035392
2009-04-23 07:59:39 51°14.619 2°54.245 -999 0.040355 0.223744 -1.035392
2009-04-23 07:59:45 51°14.626 2°54.223 -999 0.040458 0.224326 -1.035392
2009-04-23 07:59:50 51°14.631 2°54.204 -999 0.041179 0.228407 -1.035392
2009-04-23 07:59:55 51°14.637 2°54.185 -999 0.041179 0.228407 -1.035392
2009-04-23 08:00:00 51°14.643 2°54.165 -999 0.039429 0.21851 -1.035392
2009-04-23 08:00:04 51°14.648 2°54.149 -999 0.041385 0.229567 -1.035392
2009-04-23 08:00:10 51°14.656 2°54.125 -999 0.040458 0.224338 -1.035392
2009-04-23 08:00:15 51°14.662 2°54.104 -999 0.039429 0.218518 -1.035392
2009-04-23 08:00:20 51°14.669 2°54.082 -999 0.040047 0.221992 -1.035392
2009-04-23 08:00:24 51°14.674 2°54.065 -999 0.040047 0.221992 -1.035392
2009-04-23 08:00:30 51°14.683 2°54.039 -999 0.041179 0.228391 -1.035392
2009-04-23 08:00:35 51°14.69 2°54.016 -999 0.039018 0.216176 -1.035392
2009-04-23 08:00:40 51°14.697 2°53.993 -999 0.038503 0.213267 -1.035392
2009-04-23 08:00:44 51°14.703 2°53.974 -999 0.039429 0.218491 -1.035392
2009-04-23 08:00:50 51°14.711 2°53.946 -999 0.039429 0.218491 -1.035392
2009-04-23 08:00:55 51°14.718 2°53.923 -999 0.038812 0.215019 -1.035392
2009-04-23 08:01:00 51°14.726 2°53.899 -999 0.039018 0.216184 -1.035392
2009-04-23 08:01:04 51°14.732 2°53.88 -999 0.037886 0.209818 -1.035392
2009-04-23 08:01:10 51°14.741 2°53.852 -999 0.037886 0.209841 -1.035392
2009-04-23 08:01:15 51°14.748 2°53.828 -999 0.038503 0.213324 -1.035392
2009-04-23 08:01:20 51°14.756 2°53.804 -999 0.038709 0.214492 -1.035392
2009-04-23 08:01:24 51°14.762 2°53.785 -999 0.038709 0.214492 -1.035392
2009-04-23 08:01:30 51°14.771 2°53.756 -999 0.037474 0.207526 -1.035392
2009-04-23 08:01:35 51°14.778 2°53.732 -999 0.0384 0.212744 -1.035392
2009-04-23 08:01:40 51°14.786 2°53.708 -999 0.038915 0.215657 -1.035392
2009-04-23 08:01:45 51°14.793 2°53.684 -999 0.038297 0.212171 -1.035392
2009-04-23 08:01:50 51°14.8 2°53.66 -999 0.039429 0.218576 -1.035392
2009-04-23 08:01:55 51°14.808 2°53.636 -999 0.039429 0.218576 -1.035392
2009-04-23 08:01:59 51°14.814 2°53.618 -999 0.0384 0.212774 -1.035392
2009-04-23 08:02:05 51°14.823 2°53.589 -999 0.039224 0.217426 -1.035392
2009-04-23 08:02:10 51°14.831 2°53.565 -999 0.0384 0.212782 -1.035392
2009-04-23 08:02:15 51°14.838 2°53.541 -999 0.03768 0.208719 -1.035392
2009-04-23 08:02:20 51°14.846 2°53.518 -999 0.038194 0.21161 -1.035392
2009-04-23 08:02:24 51°14.852 2°53.499 -999 0.038194 0.21161 -1.035392
2009-04-23 08:02:30 51°14.861 2°53.47 -999 0.039018 0.216257 -1.070216
2009-04-23 08:02:35 51°14.869 2°53.447 -999 0.038092 0.211045 -1.035392
2009-04-23 08:02:40 51°14.876 2°53.423 -999 0.0384 0.212793 -1.035392
2009-04-23 08:02:44 51°14.881 2°53.403 -999 0.038812 0.215122 -1.035392
2009-04-23 08:02:50 51°14.89 2°53.375 -999 0.038812 0.215122 -1.035392
2009-04-23 08:02:55 51°14.897 2°53.351 -999 0.037886 0.209908 -1.035392
2009-04-23 08:03:00 51°14.904 2°53.327 -999 0.039532 0.21922 -1.035392
2009-04-23 08:03:05 51°14.911 2°53.302 -999 0.038812 0.215149 -1.035392
2009-04-23 08:03:10 51°14.918 2°53.278 -999 0.039429 0.218631 -1.070216
2009-04-23 08:03:15 51°14.925 2°53.254 -999 0.037886 0.209927 -1.035392
2009-04-23 08:03:20 51°14.932 2°53.229 -999 0.03768 0.208759 -1.035392
2009-04-23 08:03:24 51°14.937 2°53.21 -999 0.03768 0.208759 -1.035392
2009-04-23 08:03:30 51°14.946 2°53.181 -999 0.038194 0.211652 -1.035392
2009-04-23 08:03:35 51°14.953 2°53.156 -999 0.038297 0.212232 -1.035392
2009-04-23 08:03:40 51°14.96 2°53.132 -999 0.038194 0.211655 -1.035392
2009-04-23 08:03:44 51°14.965 2°53.113 -999 0.037165 0.205873 -1.070216
2009-04-23 08:03:50 51°14.974 2°53.084 -999 0.039326 0.218085 -1.035392
2009-04-23 08:03:55 51°14.981 2°53.059 -999 0.039326 0.218085 -1.035392
2009-04-23 08:04:00 51°14.988 2°53.035 -999 0.03768 0.208797 -1.035392
2009-04-23 08:04:05 51°14.994 2°53.01 -999 0.037474 0.207633 -1.035392
2009-04-23 08:04:10 51°15.001 2°52.985 -999 0.037371 0.207054 -1.035392
2009-04-23 08:04:15 51°15.008 2°52.96 -999 0.039326 0.218089 -1.035392
2009-04-23 08:04:20 51°15.015 2°52.936 -999 0.039326 0.218089 -1.035392
2009-04-23 08:04:24 51°15.02 2°52.916 -999 0.038606 0.214041 -1.035392
2009-04-23 08:04:30 51°15.029 2°52.888 -999 0.039224 0.217507 -1.035392
2009-04-23 08:04:35 51°15.037 2°52.865 -999 0.039944 0.221573 -1.070216
2009-04-23 08:04:40 51°15.044 2°52.84 -999 0.038709 0.214595 -1.035392
2009-04-23 08:04:44 51°15.05 2°52.821 -999 0.039018 0.216334 -1.035392
2009-04-23 08:04:50 51°15.059 2°52.792 -999 0.040047 0.222159 -1.035392
2009-04-23 08:04:55 51°15.066 2°52.767 -999 0.040047 0.222159 -1.035392
2009-04-23 08:05:00 51°15.073 2°52.743 -999 0.039429 0.218709 -1.035392
2009-04-23 08:05:04 51°15.079 2°52.724 -999 0.038709 0.21466 -1.035392
2009-04-23 08:05:10 51°15.088 2°52.694 -999 0.040047 0.222226 -1.035392
2009-04-23 08:05:15 51°15.095 2°52.67 -999 0.039018 0.216415 -1.070216
2009-04-23 08:05:20 51°15.102 2°52.645 -999 0.038915 0.21583 -1.035392
2009-04-23 08:05:25 51°15.109 2°52.62 -999 0.038915 0.21583 -1.035392
2009-04-23 08:05:30 51°15.116 2°52.596 -999 0.039841 0.221078 -1.035392
2009-04-23 08:05:35 51°15.123 2°52.571 -999 0.039532 0.219349 -1.035392
2009-04-23 08:05:40 51°15.13 2°52.546 -999 0.039841 0.22111 -1.035392
2009-04-23 08:05:44 51°15.136 2°52.527 -999 0.04087 0.226896 -1.070216
2009-04-23 08:05:50 51°15.144 2°52.497 -999 0.041179 0.228607 -1.035392
2009-04-23 08:05:55 51°15.151 2°52.473 -999 0.041179 0.228607 -1.035392
2009-04-23 08:05:59 51°15.157 2°52.453 -999 0.040664 0.225671 -1.035392
2009-04-23 08:06:04 51°15.163 2°52.428 -999 0.04159 0.230918 -1.035392
2009-04-23 08:06:10 51°15.173 2°52.399 -999 0.041796 0.232101 -1.035392
2009-04-23 08:06:15 51°15.18 2°52.374 -999 0.041179 0.228611 -1.035392
2009-04-23 08:06:19 51°15.186 2°52.355 -999 0.041179 0.228611 -1.035392
2009-04-23 08:06:25 51°15.194 2°52.325 -999 0.041076 0.22802 -1.070216
2009-04-23 08:06:30 51°15.201 2°52.301 -999 0.042311 0.235017 -1.035392
2009-04-23 08:06:35 51°15.208 2°52.276 -999 0.041385 0.229773 -1.035392
2009-04-23 08:06:40 51°15.215 2°52.251 -999 0.040458 0.224558 -1.035392
2009-04-23 08:06:44 51°15.22 2°52.231 -999 0.041487 0.2305 -1.070216
2009-04-23 08:06:50 51°15.228 2°52.201 -999 0.041179 0.228767 -1.035392
2009-04-23 08:06:55 51°15.234 2°52.176 -999 0.041179 0.228767 -1.035392
2009-04-23 08:07:00 51°15.241 2°52.152 -999 0.042208 0.234644 -1.035392
2009-04-23 08:07:04 51°15.246 2°52.133 -999 0.042311 0.235253 -1.035392
2009-04-23 08:07:10 51°15.255 2°52.103 -999 0.04159 0.231191 -1.035392
2009-04-23 08:07:15 51°15.261 2°52.078 -999 0.043237 0.240488 -1.035392
2009-04-23 08:07:20 51°15.268 2°52.053 -999 0.042414 0.23574 -1.070216
2009-04-23 08:07:24 51°15.273 2°52.033 -999 0.042414 0.23574 -1.070216
2009-04-23 08:07:30 51°15.282 2°52.003 -999 0.042002 0.233388 -1.035392
2009-04-23 08:07:35 51°15.289 2°51.978 -999 0.04406 0.245115 -1.035392
2009-04-23 08:07:40 51°15.296 2°51.954 -999 0.042208 0.23456 -1.035392
2009-04-23 08:07:44 51°15.301 2°51.934 -999 0.044369 0.246826 -1.035392
2009-04-23 08:07:50 51°15.31 2°51.905 -999 0.044369 0.246826 -1.035392
2009-04-23 08:07:55 51°15.317 2°51.88 -999 0.042414 0.235816 -1.035392
2009-04-23 08:07:59 51°15.322 2°51.86 -999 0.047147 0.263159 -1.035392
2009-04-23 08:08:04 51°15.328 2°51.835 -999 0.043443 0.242246 -1.035392
2009-04-23 08:08:10 51°15.333 2°51.804 -999 0.048382 0.270317 -1.070216
2009-04-23 08:08:15 51°15.338 2°51.779 -999 0.052705 0.295117 -1.070216
2009-04-23 08:08:20 51°15.341 2°51.753 -999 0.052705 0.295117 -1.070216
2009-04-23 08:08:24 51°15.342 2°51.731 -999 0.043751 0.243873 -1.035392
2009-04-23 08:08:30 51°15.343 2°51.699 -999 0.049206 0.275159 -1.035392
2009-04-23 08:08:35 51°15.344 2°51.672 -999 0.046736 0.260948 -1.035392
2009-04-23 08:08:39 51°15.343 2°51.65 -999 0.045501 0.253855 -1.035392
2009-04-23 08:08:45 51°15.342 2°51.617 -999 0.045707 0.255127 -1.035392
2009-04-23 08:08:50 51°15.338 2°51.59 -999 0.042517 0.23698 -1.035392
2009-04-23 08:08:55 51°15.335 2°51.563 -999 0.042517 0.23698 -1.035392
2009-04-23 08:09:00 51°15.331 2°51.536 -999 0.039635 0.220604 -1.035392
2009-04-23 08:09:04 51°15.327 2°51.514 -999 0.040356 0.22478 -1.035392
2009-04-23 08:09:10 51°15.321 2°51.482 -999 0.038709 0.21549 -1.070216
2009-04-23 08:09:15 51°15.316 2°51.456 -999 0.042722 0.238358 -1.035392
2009-04-23 08:09:20 51°15.311 2°51.429 -999 0.04015 0.223829 -1.035392
2009-04-23 08:09:24 51°15.306 2°51.408 -999 0.04015 0.223829 -1.035392
2009-04-23 08:09:30 51°15.299 2°51.377 -999 0.039532 0.220281 -1.035392
2009-04-23 08:09:35 51°15.293 2°51.351 -999 0.04087 0.227863 -1.035392
2009-04-23 08:09:40 51°15.287 2°51.325 -999 0.040047 0.22324 -1.035392
2009-04-23 08:09:45 51°15.281 2°51.301 -999 0.039429 0.219764 -1.035392
2009-04-23 08:09:50 51°15.275 2°51.277 -999 0.039429 0.219764 -1.035392
2009-04-23 08:09:55 51°15.269 2°51.253 -999 0.042105 0.235001 -1.035392
2009-04-23 08:10:00 51°15.264 2°51.23 -999 0.040253 0.224462 -1.070216
2009-04-23 08:10:04 51°15.26 2°51.212 -999 0.041076 0.229182 -1.035392
2009-04-23 08:10:10 51°15.253 2°51.188 -999 0.04262 0.238016 -1.035392
2009-04-23 08:10:15 51°15.248 2°51.169 -999 0.041282 0.230395 -1.070216
2009-04-23 08:10:20 51°15.244 2°51.151 -999 0.041693 0.232761 -1.035392
2009-04-23 08:10:24 51°15.24 2°51.137 -999 0.041693 0.232761 -1.035392
2009-04-23 08:10:30 51°15.234 2°51.117 -999 0.040664 0.226909 -1.035392
2009-04-23 08:10:35 51°15.23 2°51.102 -999 0.042105 0.235163 -1.035392
2009-04-23 08:10:40 51°15.226 2°51.086 -999 0.041899 0.233993 -1.035392
2009-04-23 08:10:45 51°15.222 2°51.072 -999 0.04262 0.238132 -1.035392
2009-04-23 08:10:50 51°15.218 2°51.058 -999 0.043957 0.245832 -1.035392
2009-04-23 08:10:55 51°15.214 2°51.045 -999 0.043957 0.245832 -1.035392
2009-04-23 08:11:00 51°15.21 2°51.033 -999 0.045192 0.252944 -1.035392
2009-04-23 08:11:04 51°15.207 2°51.023 -999 0.044986 0.251779 -1.035392
2009-04-23 08:11:10 51°15.202 2°51.01 -999 0.044575 0.249404 -1.035392
2009-04-23 08:11:15 51°15.198 2°50.999 -999 0.044678 0.249993 -1.035392
2009-04-23 08:11:20 51°15.194 2°50.989 -999 0.044369 0.248204 -1.035392
2009-04-23 08:11:24 51°15.191 2°50.982 -999 0.044369 0.248204 -1.035392
2009-04-23 08:11:30 51°15.186 2°50.971 -999 0.043237 0.241728 -1.035392
2009-04-23 08:11:35 51°15.182 2°50.962 -999 0.041899 0.23407 -1.035392
2009-04-23 08:11:40 51°15.178 2°50.953 -999 0.042928 0.239951 -1.035392
2009-04-23 08:11:44 51°15.175 2°50.947 -999 0.043957 0.245872 -1.035392
2009-04-23 08:11:50 51°15.171 2°50.937 -999 0.043957 0.245872 -1.035392
2009-04-23 08:11:55 51°15.167 2°50.93 -999 0.042825 0.239424 -1.035392
2009-04-23 08:12:00 51°15.163 2°50.922 -999 0.04334 0.24236 -1.035392
2009-04-23 08:12:05 51°15.159 2°50.916 -999 0.043031 0.240561 -1.035392
2009-04-23 08:12:10 51°15.156 2°50.909 -999 0.042928 0.23993 -1.035392
2009-04-23 08:12:15 51°15.152 2°50.902 -999 0.044163 0.246977 -1.035392
2009-04-23 08:12:20 51°15.148 2°50.896 -999 0.044266 0.247562 -1.035392
2009-04-23 08:12:24 51°15.145 2°50.892 -999 0.044266 0.247562 -1.035392
2009-04-23 08:12:30 51°15.141 2°50.885 -999 0.042722 0.238728 -1.035392
2009-04-23 08:12:35 51°15.137 2°50.88 -999 0.04406 0.246398 -1.035392
2009-04-23 08:12:39 51°15.135 2°50.876 -999 0.04406 0.246452 -1.035392
2009-04-23 08:12:44 51°15.131 2°50.871 -999 0.043854 0.24531 -1.035392
2009-04-23 08:12:50 51°15.126 2°50.866 -999 0.045295 0.25363 -1.070216
2009-04-23 08:12:55 51°15.123 2°50.862 -999 0.045295 0.25363 -1.070216
2009-04-23 08:12:59 51°15.12 2°50.858 -999 0.04334 0.2425 -1.035392
2009-04-23 08:13:05 51°15.116 2°50.854 -999 0.042825 0.239602 -1.035392
2009-04-23 08:13:10 51°15.112 2°50.85 -999 0.042722 0.239001 -1.035392
2009-04-23 08:13:15 51°15.109 2°50.847 -999 0.043546 0.243713 -1.035392
2009-04-23 08:13:20 51°15.105 2°50.844 -999 0.043546 0.243713 -1.035392
2009-04-23 08:13:24 51°15.102 2°50.842 -999 0.044678 0.250152 -1.035392
2009-04-23 08:13:30 51°15.098 2°50.838 -999 0.044678 0.250162 -1.035392
2009-04-23 08:13:35 51°15.095 2°50.836 -999 0.042414 0.237164 -1.035392
2009-04-23 08:13:40 51°15.092 2°50.833 -999 0.042517 0.23779 -1.035392
2009-04-23 08:13:44 51°15.089 2°50.831 -999 0.040767 0.227741 -1.035392
2009-04-23 08:13:50 51°15.085 2°50.828 -999 0.040767 0.227741 -1.035392
2009-04-23 08:13:55 51°15.082 2°50.826 -999 0.043546 0.243611 -1.035392
2009-04-23 08:14:00 51°15.078 2°50.824 -999 0.042722 0.238893 -1.035392
2009-04-23 08:14:04 51°15.075 2°50.822 -999 0.043752 0.244757 -1.035392
2009-04-23 08:14:10 51°15.071 2°50.82 -999 0.043031 0.240587 -1.070216
2009-04-23 08:14:15 51°15.067 2°50.817 -999 0.041282 0.230533 -1.035392
2009-04-23 08:14:20 51°15.064 2°50.815 -999 0.04087 0.228175 -1.035392
2009-04-23 08:14:25 51°15.06 2°50.813 -999 0.04087 0.228175 -1.035392
2009-04-23 08:14:30 51°15.056 2°50.812 -999 0.040767 0.22761 -1.035392
2009-04-23 08:14:35 51°15.053 2°50.81 -999 0.041282 0.230562 -1.035392
2009-04-23 08:14:40 51°15.049 2°50.808 -999 0.039944 0.222964 -1.035392
2009-04-23 08:14:44 51°15.046 2°50.807 -999 0.041899 0.234137 -1.070216
2009-04-23 08:14:50 51°15.042 2°50.804 -999 0.04015 0.224099 -1.035392
2009-04-23 08:14:55 51°15.039 2°50.803 -999 0.04015 0.224099 -1.035392
2009-04-23 08:14:59 51°15.036 2°50.801 -999 0.046736 0.26196 -1.035392
2009-04-23 08:15:04 51°15.032 2°50.8 -999 0.050029 0.281845 -1.035392
2009-04-23 08:15:10 51°15.028 2°50.798 -999 0.051676 0.290834 -1.035392
2009-04-23 08:15:15 51°15.025 2°50.796 -999 0.052293 0.294204 -1.035392
2009-04-23 08:15:19 51°15.022 2°50.795 -999 0.052293 0.294204 -1.035392
2009-04-23 08:15:25 51°15.018 2°50.793 -999 0.05147 0.289437 -1.035392
2009-04-23 08:15:30 51°15.015 2°50.791 -999 0.050852 0.285872 -1.035392
2009-04-23 08:15:35 51°15.012 2°50.79 -999 0.050132 0.281747 -1.035392
2009-04-23 08:15:40 51°15.009 2°50.789 -999 0.04972 0.279506 -1.035392
2009-04-23 08:15:44 51°15.006 2°50.787 -999 0.049206 0.276655 -1.035392
2009-04-23 08:15:50 51°15.002 2°50.786 -999 0.047456 0.266637 -1.035392
2009-04-23 08:15:55 51°14.998 2°50.784 -999 0.047456 0.266637 -1.035392
2009-04-23 08:16:00 51°14.994 2°50.783 -999 0.046016 0.25831 -1.035392
2009-04-23 08:16:04 51°14.991 2°50.782 -999 0.045913 0.257752 -1.035392
2009-04-23 08:16:10 51°14.986 2°50.78 -999 0.045398 0.254837 -1.035392
2009-04-23 08:16:15 51°14.982 2°50.778 -999 0.044575 0.250104 -1.035392
2009-04-23 08:16:20 51°14.978 2°50.777 -999 0.045192 0.253668 -1.035392
2009-04-23 08:16:24 51°14.974 2°50.775 -999 0.045192 0.253668 -1.035392
2009-04-23 08:16:30 51°14.968 2°50.773 -999 0.04653 0.261402 -1.070216
2009-04-23 08:16:35 51°14.964 2°50.772 -999 0.045295 0.254292 -1.035392
2009-04-23 08:16:40 51°14.959 2°50.769 -999 0.044678 0.250745 -1.035392
2009-04-23 08:16:44 51°14.955 2°50.768 -999 0.041385 0.231844 -1.035392
2009-04-23 08:16:50 51°14.949 2°50.765 -999 0.040561 0.227147 -1.035392
2009-04-23 08:16:55 51°14.944 2°50.763 -999 0.040561 0.227147 -1.035392
2009-04-23 08:17:00 51°14.939 2°50.76 -999 0.042002 0.235414 -1.035392
2009-04-23 08:17:04 51°14.935 2°50.757 -999 0.042002 0.235397 -1.070216
2009-04-23 08:17:10 51°14.929 2°50.754 -999 0.042002 0.235419 -1.035392
2009-04-23 08:17:15 51°14.924 2°50.751 -999 0.041282 0.231297 -1.035392
2009-04-23 08:17:19 51°14.92 2°50.748 -999 0.041282 0.231297 -1.035392
2009-04-23 08:17:25 51°14.914 2°50.744 -999 0.040973 0.229511 -1.035392
2009-04-23 08:17:30 51°14.908 2°50.741 -999 0.042414 0.237767 -1.035392
2009-04-23 08:17:35 51°14.903 2°50.737 -999 0.040664 0.227751 -1.035392
2009-04-23 08:17:39 51°14.899 2°50.734 -999 0.040253 0.2254 -1.035392
2009-04-23 08:17:45 51°14.893 2°50.729 -999 0.042311 0.237186 -1.035392
2009-04-23 08:17:50 51°14.888 2°50.725 -999 0.041179 0.230679 -1.035392
2009-04-23 08:17:55 51°14.883 2°50.721 -999 0.041179 0.230679 -1.035392
2009-04-23 08:18:00 51°14.878 2°50.717 -999 0.040561 0.227142 -1.035392
2009-04-23 08:18:04 51°14.874 2°50.714 -999 0.084196 0.482114 -1.035392
2009-04-23 08:18:10 51°14.868 2°50.708 -999 0.133082 0.778869 -1.035392
2009-04-23 08:18:15 51°14.863 2°50.704 -999 0.077506 0.442442 -1.035392
2009-04-23 08:18:20 51°14.858 2°50.699 -999 0.067935 0.385936 -1.035392
2009-04-23 08:18:24 51°14.854 2°50.695 -999 0.067935 0.385936 -1.035392
2009-04-23 08:18:30 51°14.848 2°50.689 -999 0.063819 0.36158 -1.035392
2009-04-23 08:18:35 51°14.844 2°50.684 -999 0.063304 0.358644 -1.035392
2009-04-23 08:18:40 51°14.839 2°50.678 -999 0.059085 0.334115 -1.035392
2009-04-23 08:18:45 51°14.834 2°50.673 -999 0.059908 0.339217 -1.035392
2009-04-23 08:18:50 51°14.83 2°50.667 -999 0.059908 0.339217 -1.035392
2009-04-23 08:18:55 51°14.825 2°50.661 -999 0.062378 0.353966 -1.035392
2009-04-23 08:19:00 51°14.821 2°50.656 -999 0.064539 0.366845 -1.035392
2009-04-23 08:19:04 51°14.817 2°50.652 -999 0.066598 0.379015 -1.035392
2009-04-23 08:19:10 51°14.812 2°50.645 -999 0.063922 0.36337 -1.035392
2009-04-23 08:19:15 51°14.808 2°50.639 -999 0.062584 0.355555 -1.035392
2009-04-23 08:19:20 51°14.804 2°50.633 -999 0.059703 0.338694 -1.035392
2009-04-23 08:19:24 51°14.801 2°50.628 -999 0.059703 0.338694 -1.035392
2009-04-23 08:19:30 51°14.796 2°50.621 -999 0.060011 0.340468 -1.035392
2009-04-23 08:19:35 51°14.792 2°50.615 -999 0.056409 0.319374 -1.035392
2009-04-23 08:19:40 51°14.788 2°50.61 -999 0.061658 0.350022 -1.035392
2009-04-23 08:19:44 51°14.785 2°50.605 -999 0.060732 0.344549 -1.035392
2009-04-23 08:19:50 51°14.78 2°50.598 -999 0.063099 0.358386 -1.035392
2009-04-23 08:19:55 51°14.777 2°50.592 -999 0.063099 0.358386 -1.035392
2009-04-23 08:20:00 51°14.773 2°50.586 -999 0.062172 0.352945 -1.035392
2009-04-23 08:20:04 51°14.77 2°50.581 -999 0.048794 0.27485 -1.035392
2009-04-23 08:20:10 51°14.765 2°50.574 -999 0.075345 0.429857 -1.035392
2009-04-23 08:20:15 51°14.762 2°50.568 -999 0.085328 0.489838 -1.035392
2009-04-23 08:20:20 51°14.758 2°50.562 -999 0.074316 0.424047 -1.035392
2009-04-23 08:20:24 51°14.755 2°50.557 -999 0.074316 0.424047 -1.035392
2009-04-23 08:20:30 51°14.751 2°50.55 -999 0.06351 0.360343 -1.035392
2009-04-23 08:20:35 51°14.747 2°50.544 -999 0.055174 0.31166 -1.035392
2009-04-23 08:20:40 51°14.744 2°50.538 -999 0.057747 0.326614 -1.035392
2009-04-23 08:20:44 51°14.741 2°50.533 -999 0.055689 0.314634 -1.035392
2009-04-23 08:20:50 51°14.737 2°50.526 -999 0.055689 0.314634 -1.035392
2009-04-23 08:20:55 51°14.733 2°50.52 -999 0.055895 0.315813 -1.035392
2009-04-23 08:21:00 51°14.73 2°50.514 -999 0.058159 0.329079 -1.035392
2009-04-23 08:21:05 51°14.727 2°50.508 -999 0.054351 0.307041 -1.035392
2009-04-23 08:21:10 51°14.723 2°50.503 -999 0.053734 0.303583 -1.035392
2009-04-23 08:21:15 51°14.72 2°50.497 -999 0.053734 0.303763 -1.035392
2009-04-23 08:21:20 51°14.716 2°50.491 -999 0.050852 0.287068 -1.035392
2009-04-23 08:21:24 51°14.714 2°50.486 -999 0.050852 0.287068 -1.035392
2009-04-23 08:21:30 51°14.71 2°50.479 -999 0.05147 0.290691 -1.035392
2009-04-23 08:21:35 51°14.706 2°50.474 -999 0.050338 0.284169 -1.035392
2009-04-23 08:21:40 51°14.703 2°50.468 -999 0.05466 0.309379 -1.035392
2009-04-23 08:21:44 51°14.7 2°50.463 -999 0.055174 0.312422 -1.035392
2009-04-23 08:21:50 51°14.696 2°50.457 -999 0.050749 0.286608 -1.035392
2009-04-23 08:21:55 51°14.693 2°50.451 -999 0.050749 0.286608 -1.035392
2009-04-23 08:22:00 51°14.69 2°50.445 -999 0.053219 0.300867 -1.035392
2009-04-23 08:22:05 51°14.686 2°50.439 -999 0.057747 0.327292 -1.035392
2009-04-23 08:22:10 51°14.683 2°50.434 -999 0.054557 0.308717 -1.035392
2009-04-23 08:22:15 51°14.68 2°50.428 -999 0.060526 0.343556 -1.035392
2009-04-23 08:22:20 51°14.676 2°50.422 -999 0.060526 0.343556 -1.035392
2009-04-23 08:22:24 51°14.674 2°50.418 -999 0.057541 0.326097 -1.035392
2009-04-23 08:22:30 51°14.67 2°50.411 -999 0.051573 0.291283 -1.035392
2009-04-23 08:22:35 51°14.667 2°50.405 -999 0.046839 0.263763 -1.035392
2009-04-23 08:22:40 51°14.663 2°50.4 -999 0.045707 0.257189 -1.035392
2009-04-23 08:22:44 51°14.661 2°50.395 -999 0.046427 0.261283 -1.035392
2009-04-23 08:22:50 51°14.657 2°50.388 -999 0.044986 0.25298 -1.035392
2009-04-23 08:22:55 51°14.654 2°50.382 -999 0.044986 0.25298 -1.035392
2009-04-23 08:23:00 51°14.65 2°50.377 -999 0.047971 0.270225 -1.035392
2009-04-23 08:23:04 51°14.648 2°50.372 -999 0.044781 0.25186 -1.035392
2009-04-23 08:23:10 51°14.644 2°50.365 -999 0.044884 0.252461 -1.035392
2009-04-23 08:23:15 51°14.641 2°50.359 -999 0.04581 0.257815 -1.035392
2009-04-23 08:23:20 51°14.637 2°50.354 -999 0.046736 0.263179 -1.035392
2009-04-23 08:23:24 51°14.635 2°50.349 -999 0.046736 0.263179 -1.035392
2009-04-23 08:23:30 51°14.631 2°50.342 -999 0.046839 0.263802 -1.035392
2009-04-23 08:23:35 51°14.628 2°50.336 -999 0.044884 0.252521 -1.035392
2009-04-23 08:23:40 51°14.625 2°50.331 -999 0.042928 0.241276 -1.035392
2009-04-23 08:23:44 51°14.622 2°50.326 -999 0.043443 0.244211 -1.035392
2009-04-23 08:23:50 51°14.619 2°50.319 -999 0.047456 0.267352 -1.035392
2009-04-23 08:23:55 51°14.615 2°50.313 -999 0.047456 0.267352 -1.035392
2009-04-23 08:24:00 51°14.612 2°50.308 -999 0.04972 0.280488 -1.035392
2009-04-23 08:24:04 51°14.61 2°50.303 -999 0.046016 0.259077 -1.035392
2009-04-23 08:24:10 51°14.606 2°50.296 -999 0.042825 0.240681 -1.035392
2009-04-23 08:24:15 51°14.603 2°50.291 -999 0.042825 0.24065 -1.035392
2009-04-23 08:24:19 51°14.6 2°50.286 -999 0.042825 0.24065 -1.035392
2009-04-23 08:24:25 51°14.596 2°50.279 -999 0.043854 0.246546 -1.035392
2009-04-23 08:24:30 51°14.593 2°50.274 -999 0.043237 0.242983 -1.035392
2009-04-23 08:24:35 51°14.59 2°50.268 -999 0.037989 0.21285 -1.035392
2009-04-23 08:24:40 51°14.586 2°50.262 -999 0.038606 0.216272 -1.035392
2009-04-23 08:24:44 51°14.584 2°50.258 -999 0.038503 0.21572 -1.035392
2009-04-23 08:24:50 51°14.58 2°50.251 -999 0.039738 0.222817 -1.035392
2009-04-23 08:24:55 51°14.577 2°50.245 -999 0.039738 0.222817 -1.035392
2009-04-23 08:25:00 51°14.573 2°50.24 -999 0.039224 0.219904 -1.035392
2009-04-23 08:25:04 51°14.571 2°50.235 -999 0.039224 0.219936 -1.035392
2009-04-23 08:25:10 51°14.567 2°50.228 -999 0.039224 0.219964 -1.035392
2009-04-23 08:25:15 51°14.564 2°50.223 -999 0.040047 0.224704 -1.035392
2009-04-23 08:25:20 51°14.56 2°50.217 -999 0.041179 0.231195 -1.035392
2009-04-23 08:25:25 51°14.557 2°50.211 -999 0.041179 0.231195 -1.035392
2009-04-23 08:25:30 51°14.554 2°50.206 -999 0.039326 0.220592 -1.035392
2009-04-23 08:25:35 51°14.551 2°50.2 -999 0.038915 0.218224 -1.035392
2009-04-23 08:25:40 51°14.547 2°50.195 -999 0.038915 0.218216 -1.035392
2009-04-23 08:25:44 51°14.545 2°50.19 -999 0.040356 0.226467 -1.035392
2009-04-23 08:25:50 51°14.541 2°50.183 -999 0.039738 0.22295 -1.035392
2009-04-23 08:25:55 51°14.537 2°50.178 -999 0.039738 0.22295 -1.035392
2009-04-23 08:26:00 51°14.534 2°50.172 -999 0.039018 0.218843 -1.035392
2009-04-23 08:26:04 51°14.532 2°50.168 -999 0.038812 0.217675 -1.035392
2009-04-23 08:26:10 51°14.528 2°50.161 -999 0.039121 0.219455 -1.035392
2009-04-23 08:26:15 51°14.524 2°50.156 -999 0.039326 0.22064 -1.035392
2009-04-23 08:26:20 51°14.521 2°50.15 -999 0.039738 0.222995 -1.035392
2009-04-23 08:26:24 51°14.519 2°50.146 -999 0.039738 0.222995 -1.035392
2009-04-23 08:26:30 51°14.515 2°50.139 -999 0.039121 0.219455 -1.035392
2009-04-23 08:26:35 51°14.512 2°50.133 -999 0.040047 0.224761 -1.035392
2009-04-23 08:26:39 51°14.509 2°50.129 -999 0.039429 0.221229 -1.035392
2009-04-23 08:26:45 51°14.505 2°50.122 -999 0.039635 0.222402 -1.035392
2009-04-23 08:26:50 51°14.502 2°50.116 -999 0.099324 0.574054 -0.965744
2009-04-23 08:26:55 51°14.499 2°50.11 -999 0.099324 0.574054 -0.965744
2009-04-23 08:27:00 51°14.496 2°50.104 -999 0.14852 0.874484 -0.826448
2009-04-23 08:27:04 51°14.494 2°50.099 -999 0.064231 0.365073 -0.896096
2009-04-23 08:27:10 51°14.491 2°50.092 -999 0.056512 0.31963 -0.93092
2009-04-23 08:27:15 51°14.488 2°50.086 -999 0.058365 0.330567 -0.93092
2009-04-23 08:27:20 51°14.485 2°50.08 -999 0.06032 0.342179 -0.965744
2009-04-23 08:27:24 51°14.483 2°50.075 -999 0.06032 0.342179 -0.965744
2009-04-23 08:27:30 51°14.48 2°50.067 -999 0.060114 0.34107 -0.93092
2009-04-23 08:27:35 51°14.477 2°50.061 -999 0.055072 0.31162 -0.93092
2009-04-23 08:27:40 51°14.474 2°50.055 -999 0.051573 0.291315 -0.93092
2009-04-23 08:27:45 51°14.472 2°50.049 -999 0.051984 0.293878 -0.965744
2009-04-23 08:27:50 51°14.469 2°50.043 -999 0.051984 0.293878 -0.965744
2009-04-23 08:27:55 51°14.466 2°50.036 -999 0.052499 0.297049 -0.965744
2009-04-23 08:28:00 51°14.464 2°50.03 -999 0.053425 0.302545 -0.965744
2009-04-23 08:28:04 51°14.462 2°50.025 -999 0.053219 0.301447 -0.965744
2009-04-23 08:28:10 51°14.458 2°50.017 -999 0.052705 0.298506 -0.965744
2009-04-23 08:28:15 51°14.456 2°50.011 -999 0.054042 0.306323 -0.965744
2009-04-23 08:28:20 51°14.453 2°50.004 -999 0.052602 0.297934 -0.965744
2009-04-23 08:28:24 51°14.451 2°49.999 -999 0.052602 0.297934 -0.965744
2009-04-23 08:28:30 51°14.448 2°49.991 -999 0.050749 0.287154 -0.965744
2009-04-23 08:28:35 51°14.445 2°49.984 -999 0.050338 0.284763 -0.93092
2009-04-23 08:28:40 51°14.442 2°49.978 -999 0.051161 0.289536 -0.965744
2009-04-23 08:28:44 51°14.44 2°49.972 -999 0.052396 0.296714 -0.965744
2009-04-23 08:28:50 51°14.436 2°49.964 -999 0.05147 0.291315 -0.965744
2009-04-23 08:28:55 51°14.434 2°49.957 -999 0.05147 0.291315 -0.965744
2009-04-23 08:29:00 51°14.431 2°49.95 -999 0.049926 0.282341 -0.965744
2009-04-23 08:29:04 51°14.429 2°49.945 -999 0.049617 0.280528 -0.965744
2009-04-23 08:29:10 51°14.425 2°49.937 -999 0.048177 0.272169 -0.965744
2009-04-23 08:29:15 51°14.422 2°49.93 -999 0.048897 0.276339 -0.965744
2009-04-23 08:29:20 51°14.419 2°49.923 -999 0.048897 0.276339 -0.965744
2009-04-23 08:29:24 51°14.417 2°49.918 -999 0.050132 0.283499 -0.965744
2009-04-23 08:29:30 51°14.414 2°49.909 -999 0.048794 0.275727 -0.965744
2009-04-23 08:29:35 51°14.411 2°49.902 -999 0.047765 0.26975 -0.965744
2009-04-23 08:29:40 51°14.408 2°49.896 -999 0.046839 0.264375 -0.93092
2009-04-23 08:29:44 51°14.405 2°49.89 -999 0.047765 0.26974 -0.965744
2009-04-23 08:29:50 51°14.402 2°49.882 -999 0.047765 0.26974 -0.965744
2009-04-23 08:29:55 51°14.399 2°49.875 -999 0.04725 0.266771 -0.965744
2009-04-23 08:30:00 51°14.396 2°49.868 -999 0.046942 0.26498 -0.965744
2009-04-23 08:30:05 51°14.393 2°49.861 -999 0.049309 0.278706 -0.93092
2009-04-23 08:30:10 51°14.39 2°49.854 -999 0.048794 0.275727 -0.93092
2009-04-23 08:30:15 51°14.387 2°49.847 -999 0.049309 0.278732 -0.965744
2009-04-23 08:30:20 51°14.384 2°49.84 -999 0.048691 0.275156 -0.93092
2009-04-23 08:30:24 51°14.382 2°49.835 -999 0.048691 0.275156 -0.93092
2009-04-23 08:30:30 51°14.378 2°49.826 -999 0.048382 0.273372 -0.93092
2009-04-23 08:30:35 51°14.375 2°49.819 -999 0.049103 0.277553 -0.965744
2009-04-23 08:30:40 51°14.373 2°49.812 -999 0.049514 0.279946 -0.93092
2009-04-23 08:30:44 51°14.37 2°49.807 -999 0.049309 0.278768 -0.93092
2009-04-23 08:30:50 51°14.367 2°49.798 -999 0.046839 0.264472 -0.93092
2009-04-23 08:30:55 51°14.364 2°49.791 -999 0.046839 0.264472 -0.93092
2009-04-23 08:30:59 51°14.361 2°49.785 -999 0.047045 0.265653 -0.93092
2009-04-23 08:31:05 51°14.358 2°49.777 -999 0.048074 0.271598 -0.93092
2009-04-23 08:31:10 51°14.355 2°49.77 -999 0.050441 0.285308 -0.965744
2009-04-23 08:31:15 51°14.352 2°49.763 -999 0.049514 0.279921 -0.93092
2009-04-23 08:31:20 51°14.349 2°49.756 -999 0.049514 0.279921 -0.93092
2009-04-23 08:31:24 51°14.347 2°49.751 -999 0.047971 0.270962 -0.965744
2009-04-23 08:31:30 51°14.343 2°49.742 -999 0.046324 0.261428 -0.93092
2009-04-23 08:31:35 51°14.34 2°49.736 -999 0.045707 0.25785 -0.93092
2009-04-23 08:31:40 51°14.338 2°49.728 -999 0.045604 0.257255 -0.93092
2009-04-23 08:31:44 51°14.335 2°49.723 -999 0.045192 0.254878 -0.93092
2009-04-23 08:31:50 51°14.332 2°49.715 -999 0.044986 0.25369 -0.965744
2009-04-23 08:31:55 51°14.329 2°49.708 -999 0.044986 0.25369 -0.965744
2009-04-23 08:32:00 51°14.326 2°49.701 -999 0.045501 0.256661 -0.965744
2009-04-23 08:32:04 51°14.324 2°49.695 -999 0.047456 0.267982 -0.93092
2009-04-23 08:32:10 51°14.32 2°49.687 -999 0.048485 0.273963 -0.965744
2009-04-23 08:32:15 51°14.317 2°49.68 -999 0.046118 0.260262 -0.93092
2009-04-23 08:32:20 51°14.314 2°49.673 -999 0.045913 0.259063 -0.965744
2009-04-23 08:32:24 51°14.312 2°49.668 -999 0.045913 0.259063 -0.965744
2009-04-23 08:32:30 51°14.308 2°49.659 -999 0.046942 0.265019 -0.93092
2009-04-23 08:32:35 51°14.305 2°49.652 -999 0.046633 0.263238 -0.93092
2009-04-23 08:32:40 51°14.302 2°49.646 -999 0.044781 0.25253 -0.93092
2009-04-23 08:32:44 51°14.3 2°49.64 -999 0.044884 0.253128 -0.93092
2009-04-23 08:32:50 51°14.296 2°49.632 -999 0.044163 0.248981 -0.93092
2009-04-23 08:32:55 51°14.293 2°49.625 -999 0.044163 0.248981 -0.93092
2009-04-23 08:33:00 51°14.29 2°49.618 -999 0.046736 0.263857 -0.93092
2009-04-23 08:33:04 51°14.288 2°49.613 -999 0.047868 0.27043 -0.93092
2009-04-23 08:33:10 51°14.284 2°49.604 -999 0.046427 0.2621 -0.93092
2009-04-23 08:33:15 51°14.281 2°49.597 -999 0.047971 0.271041 -0.93092
2009-04-23 08:33:20 51°14.278 2°49.59 -999 0.048794 0.275819 -0.93092
2009-04-23 08:33:25 51°14.275 2°49.584 -999 0.048794 0.275819 -0.93092
2009-04-23 08:33:30 51°14.272 2°49.577 -999 0.047868 0.270445 -0.93092
2009-04-23 08:33:35 51°14.269 2°49.57 -999 0.047045 0.265673 -0.93092
2009-04-23 08:33:40 51°14.266 2°49.563 -999 0.044884 0.253175 -0.93092
2009-04-23 08:33:44 51°14.264 2°49.557 -999 0.04581 0.258521 -0.93092
2009-04-23 08:33:50 51°14.26 2°49.549 -999 0.047353 0.267435 -0.93092
2009-04-23 08:33:55 51°14.257 2°49.542 -999 0.047353 0.267435 -0.93092
2009-04-23 08:34:00 51°14.254 2°49.535 -999 0.048074 0.271613 -0.965744
2009-04-23 08:34:04 51°14.252 2°49.53 -999 0.046118 0.260291 -0.965744
2009-04-23 08:34:10 51°14.248 2°49.522 -999 0.045707 0.257916 -0.965744
2009-04-23 08:34:15 51°14.245 2°49.515 -999 0.044369 0.250182 -0.93092
2009-04-23 08:34:20 51°14.242 2°49.508 -999 0.042928 0.241881 -0.965744
2009-04-23 08:34:25 51°14.239 2°49.501 -999 0.042928 0.241881 -0.965744
2009-04-23 08:34:30 51°14.236 2°49.494 -999 0.043957 0.247817 -0.965744
2009-04-23 08:34:35 51°14.233 2°49.487 -999 0.045089 0.254359 -0.965744
2009-04-23 08:34:40 51°14.231 2°49.48 -999 0.043854 0.247241 -0.965744
2009-04-23 08:34:44 51°14.228 2°49.475 -999 0.044472 0.250808 -0.965744
2009-04-23 08:34:50 51°14.225 2°49.467 -999 0.04653 0.26271 -0.965744
2009-04-23 08:34:55 51°14.222 2°49.46 -999 0.04653 0.26271 -0.965744
2009-04-23 08:35:00 51°14.219 2°49.453 -999 0.04406 0.248447 -0.965744
2009-04-23 08:35:04 51°14.216 2°49.447 -999 0.043443 0.244886 -0.93092
2009-04-23 08:35:10 51°14.213 2°49.439 -999 0.044369 0.250228 -0.965744
2009-04-23 08:35:15 51°14.21 2°49.432 -999 0.046839 0.264521 -0.965744
2009-04-23 08:35:20 51°14.207 2°49.425 -999 0.047045 0.265732 -0.965744
2009-04-23 08:35:24 51°14.204 2°49.42 -999 0.047045 0.265732 -0.965744
2009-04-23 08:35:30 51°14.201 2°49.412 -999 0.044369 0.250265 -0.965744
2009-04-23 08:35:35 51°14.198 2°49.405 -999 0.043443 0.244908 -0.965744
2009-04-23 08:35:39 51°14.195 2°49.4 -999 0.042928 0.241939 -0.965744
2009-04-23 08:35:44 51°14.192 2°49.393 -999 0.043237 0.243709 -0.965744
2009-04-23 08:35:50 51°14.188 2°49.385 -999 0.043443 0.244886 -0.965744
2009-04-23 08:35:55 51°14.185 2°49.378 -999 0.043443 0.244886 -0.965744
2009-04-23 08:36:00 51°14.183 2°49.371 -999 0.045913 0.259144 -0.965744
2009-04-23 08:36:04 51°14.18 2°49.366 -999 0.046221 0.260934 -0.965744
2009-04-23 08:36:10 51°14.176 2°49.357 -999 0.047353 0.267495 -0.965744
2009-04-23 08:36:15 51°14.174 2°49.351 -999 0.049309 0.278855 -0.965744
2009-04-23 08:36:20 51°14.171 2°49.344 -999 0.049412 0.279468 -0.965744
2009-04-23 08:36:24 51°14.168 2°49.339 -999 0.049412 0.279468 -0.965744
2009-04-23 08:36:30 51°14.165 2°49.331 -999 0.045192 0.255019 -0.965744
2009-04-23 08:36:35 51°14.162 2°49.324 -999 0.042825 0.241332 -0.965744
2009-04-23 08:36:40 51°14.159 2°49.317 -999 0.044986 0.253774 -0.965744
2009-04-23 08:36:45 51°14.156 2°49.31 -999 0.045707 0.257931 -0.93092
2009-04-23 08:36:50 51°14.153 2°49.304 -999 0.045707 0.257931 -0.93092
2009-04-23 08:36:55 51°14.15 2°49.297 -999 0.045295 0.255547 -0.965744
2009-04-23 08:37:00 51°14.147 2°49.29 -999 0.046736 0.263877 -0.965744
2009-04-23 08:37:04 51°14.144 2°49.285 -999 0.045707 0.25794 -0.965744
2009-04-23 08:37:10 51°14.141 2°49.277 -999 0.044369 0.250214 -0.965744
2009-04-23 08:37:15 51°14.138 2°49.27 -999 0.043957 0.247839 -0.965744
2009-04-23 08:37:20 51°14.135 2°49.263 -999 0.043957 0.247844 -0.965744
2009-04-23 08:37:24 51°14.133 2°49.258 -999 0.043957 0.247844 -0.965744
2009-04-23 08:37:30 51°14.13 2°49.249 -999 0.045089 0.254387 -0.965744
2009-04-23 08:37:35 51°14.127 2°49.242 -999 0.045398 0.256184 -0.965744
2009-04-23 08:37:40 51°14.124 2°49.235 -999 0.043649 0.246109 -0.965744
2009-04-23 08:37:45 51°14.121 2°49.228 -999 0.042311 0.238409 -0.965744
2009-04-23 08:37:50 51°14.119 2°49.221 -999 0.043031 0.242567 -0.965744
2009-04-23 08:37:55 51°14.116 2°49.214 -999 0.043031 0.242567 -0.965744
2009-04-23 08:38:00 51°14.114 2°49.207 -999 0.04406 0.248515 -0.965744
2009-04-23 08:38:04 51°14.112 2°49.201 -999 0.04262 0.240222 -0.965744
2009-04-23 08:38:10 51°14.109 2°49.193 -999 0.042002 0.236671 -0.965744
2009-04-23 08:38:15 51°14.106 2°49.186 -999 0.042414 0.239049 -0.965744
2009-04-23 08:38:20 51°14.103 2°49.179 -999 0.045089 0.254504 -0.965744
2009-04-23 08:38:24 51°14.101 2°49.173 -999 0.045089 0.254504 -0.965744
2009-04-23 08:38:30 51°14.098 2°49.165 -999 0.045295 0.255717 -0.965744
2009-04-23 08:38:35 51°14.095 2°49.158 -999 0.045501 0.25693 -0.965744
2009-04-23 08:38:40 51°14.093 2°49.151 -999 0.043957 0.248026 -0.965744
2009-04-23 08:38:44 51°14.091 2°49.145 -999 0.043649 0.246244 -0.965744
2009-04-23 08:38:50 51°14.088 2°49.137 -999 0.042311 0.238527 -0.965744
2009-04-23 08:38:55 51°14.085 2°49.13 -999 0.042311 0.238527 -0.965744
2009-04-23 08:39:00 51°14.082 2°49.123 -999 0.042208 0.237929 -0.965744
2009-04-23 08:39:05 51°14.08 2°49.116 -999 0.042208 0.237925 -0.965744
2009-04-23 08:39:10 51°14.077 2°49.109 -999 0.044678 0.252172 -0.965744
2009-04-23 08:39:15 51°14.075 2°49.102 -999 0.044884 0.253361 -0.965744
2009-04-23 08:39:20 51°14.072 2°49.095 -999 0.043134 0.243267 -0.965744
2009-04-23 08:39:24 51°14.07 2°49.089 -999 0.043134 0.243267 -0.965744
2009-04-23 08:39:30 51°14.067 2°49.081 -999 0.041693 0.234962 -0.965744
2009-04-23 08:39:35 51°14.064 2°49.074 -999 0.045089 0.254564 -0.965744
2009-04-23 08:39:40 51°14.062 2°49.067 -999 0.045398 0.25634 -0.965744
2009-04-23 08:39:44 51°14.06 2°49.062 -999 0.04334 0.244441 -0.965744
2009-04-23 08:39:50 51°14.057 2°49.053 -999 0.041282 0.232568 -0.965744
2009-04-23 08:39:55 51°14.054 2°49.046 -999 0.041282 0.232568 -0.965744
2009-04-23 08:40:00 51°14.052 2°49.039 -999 0.04406 0.248579 -0.965744
2009-04-23 08:40:05 51°14.049 2°49.033 -999 0.043649 0.246213 -0.965744
2009-04-23 08:40:10 51°14.046 2°49.026 -999 0.042517 0.239686 -0.965744
2009-04-23 08:40:15 51°14.044 2°49.019 -999 0.041282 0.232572 -0.965744
2009-04-23 08:40:20 51°14.041 2°49.012 -999 0.042722 0.240868 -0.965744
2009-04-23 08:40:24 51°14.039 2°49.006 -999 0.042722 0.240868 -0.965744
2009-04-23 08:40:30 51°14.036 2°48.998 -999 0.044163 0.249191 -0.965744
2009-04-23 08:40:35 51°14.034 2°48.991 -999 0.043031 0.242665 -0.965744
2009-04-23 08:40:40 51°14.031 2°48.984 -999 0.041899 0.236152 -0.965744
2009-04-23 08:40:45 51°14.028 2°48.978 -999 0.043031 0.242687 -0.965744
2009-04-23 08:40:50 51°14.026 2°48.971 -999 0.041385 0.233207 -0.965744
2009-04-23 08:40:55 51°14.023 2°48.964 -999 0.041385 0.233207 -0.965744
2009-04-23 08:41:00 51°14.021 2°48.957 -999 0.042311 0.238548 -0.965744
2009-04-23 08:41:04 51°14.019 2°48.952 -999 0.044884 0.253417 -0.965744
2009-04-23 08:41:10 51°14.016 2°48.944 -999 0.045501 0.257001 -0.965744
2009-04-23 08:41:15 51°14.013 2°48.937 -999 0.044986 0.25403 -0.965744
2009-04-23 08:41:20 51°14.01 2°48.93 -999 0.042517 0.23977 -0.965744
2009-04-23 08:41:24 51°14.008 2°48.925 -999 0.042517 0.23977 -0.965744
2009-04-23 08:41:30 51°14.005 2°48.917 -999 0.043752 0.246892 -0.965744
2009-04-23 08:41:35 51°14.003 2°48.91 -999 0.04262 0.240367 -0.965744
2009-04-23 08:41:40 51°14 2°48.903 -999 0.041796 0.235615 -0.965744
2009-04-23 08:41:44 51°13.998 2°48.898 -999 0.04159 0.234422 -0.965744
2009-04-23 08:41:50 51°13.995 2°48.89 -999 0.041282 0.232632 -0.965744
2009-04-23 08:41:55 51°13.992 2°48.883 -999 0.041282 0.232632 -0.965744
2009-04-23 08:42:00 51°13.99 2°48.876 -999 0.043649 0.246276 -0.965744
2009-04-23 08:42:04 51°13.988 2°48.871 -999 0.046118 0.260555 -0.965744
2009-04-23 08:42:10 51°13.985 2°48.863 -999 0.045398 0.256392 -0.965744
2009-04-23 08:42:15 51°13.982 2°48.857 -999 0.043546 0.245691 -0.965744
2009-04-23 08:42:20 51°13.98 2°48.85 -999 0.042311 0.238566 -0.965744
2009-04-23 08:42:25 51°13.977 2°48.843 -999 0.042311 0.238566 -0.965744
2009-04-23 08:42:30 51°13.975 2°48.836 -999 0.042517 0.239748 -0.965744
2009-04-23 08:42:35 51°13.972 2°48.83 -999 0.043957 0.248067 -0.965744
2009-04-23 08:42:40 51°13.97 2°48.823 -999 0.043854 0.247486 -0.965744
2009-04-23 08:42:44 51°13.968 2°48.818 -999 0.042311 0.238588 -0.965744
2009-04-23 08:42:50 51°13.965 2°48.81 -999 0.042208 0.23799 -0.965744
2009-04-23 08:42:55 51°13.962 2°48.803 -999 0.042208 0.23799 -0.965744
2009-04-23 08:43:00 51°13.96 2°48.797 -999 0.04159 0.234443 -0.965744
2009-04-23 08:43:04 51°13.958 2°48.791 -999 0.04159 0.234443 -0.965744
2009-04-23 08:43:10 51°13.955 2°48.783 -999 0.042311 0.238601 -0.965744
2009-04-23 08:43:15 51°13.952 2°48.777 -999 0.04159 0.23446 -0.965744
2009-04-23 08:43:20 51°13.95 2°48.77 -999 0.042105 0.237428 -0.965744
2009-04-23 08:43:25 51°13.947 2°48.764 -999 0.042105 0.237428 -0.965744
2009-04-23 08:43:30 51°13.945 2°48.757 -999 0.04159 0.234469 -0.965744
2009-04-23 08:43:35 51°13.942 2°48.75 -999 0.042105 0.237441 -0.965744
2009-04-23 08:43:40 51°13.94 2°48.743 -999 0.04262 0.24042 -0.965744
2009-04-23 08:43:44 51°13.938 2°48.738 -999 0.042002 0.236866 -0.965744
2009-04-23 08:43:50 51°13.935 2°48.73 -999 0.040253 0.226793 -0.965744
2009-04-23 08:43:55 51°13.932 2°48.723 -999 0.040253 0.226793 -0.965744
2009-04-23 08:44:00 51°13.93 2°48.717 -999 0.040767 0.229752 -0.965744
2009-04-23 08:44:04 51°13.928 2°48.712 -999 0.041693 0.235079 -0.965744
2009-04-23 08:44:10 51°13.925 2°48.704 -999 0.041796 0.235676 -0.965744
2009-04-23 08:44:15 51°13.922 2°48.697 -999 0.039944 0.225019 -0.965744
2009-04-23 08:44:20 51°13.92 2°48.69 -999 0.042002 0.236857 -0.965744
2009-04-23 08:44:24 51°13.918 2°48.685 -999 0.042002 0.236857 -0.965744
2009-04-23 08:44:30 51°13.915 2°48.677 -999 0.042414 0.239233 -0.965744
2009-04-23 08:44:35 51°13.913 2°48.67 -999 0.041796 0.235688 -0.965744
2009-04-23 08:44:40 51°13.91 2°48.664 -999 0.042208 0.23806 -0.965744
2009-04-23 08:44:44 51°13.908 2°48.659 -999 0.043649 0.246371 -0.965744
2009-04-23 08:44:50 51°13.905 2°48.651 -999 0.042414 0.239251 -0.965744
2009-04-23 08:44:55 51°13.903 2°48.644 -999 0.042414 0.239251 -0.965744
2009-04-23 08:45:00 51°13.9 2°48.637 -999 0.041179 0.232137 -0.965744
2009-04-23 08:45:04 51°13.898 2°48.632 -999 0.040767 0.229764 -0.965744
2009-04-23 08:45:10 51°13.895 2°48.624 -999 0.039738 0.223844 -0.965744
2009-04-23 08:45:15 51°13.893 2°48.618 -999 0.04262 0.240433 -0.965744
2009-04-23 08:45:20 51°13.89 2°48.611 -999 0.043443 0.245196 -0.965744
2009-04-23 08:45:25 51°13.888 2°48.604 -999 0.043443 0.245196 -0.965744
2009-04-23 08:45:30 51°13.885 2°48.598 -999 0.040664 0.229189 -0.965744
2009-04-23 08:45:35 51°13.883 2°48.591 -999 0.042722 0.241044 -0.965744
2009-04-23 08:45:40 51°13.881 2°48.584 -999 0.04406 0.248775 -0.965744
2009-04-23 08:45:45 51°13.878 2°48.578 -999 0.041385 0.233344 -0.965744
2009-04-23 08:45:50 51°13.875 2°48.571 -999 0.04015 0.226234 -0.965744
2009-04-23 08:45:55 51°13.873 2°48.564 -999 0.04015 0.226234 -0.965744
2009-04-23 08:46:00 51°13.871 2°48.558 -999 0.040356 0.227414 -0.965744
2009-04-23 08:46:04 51°13.869 2°48.553 -999 0.040664 0.229189 -0.965744
2009-04-23 08:46:10 51°13.866 2°48.545 -999 0.043134 0.243428 -0.965744
2009-04-23 08:46:15 51°13.863 2°48.538 -999 0.040664 0.229202 -0.965744
2009-04-23 08:46:20 51°13.861 2°48.531 -999 0.039738 0.223877 -0.965744
2009-04-23 08:46:24 51°13.859 2°48.526 -999 0.039738 0.223877 -0.965744
2009-04-23 08:46:30 51°13.856 2°48.518 -999 0.042002 0.236913 -0.965744
2009-04-23 08:46:35 51°13.853 2°48.512 -999 0.041796 0.23574 -0.965744
2009-04-23 08:46:40 51°13.851 2°48.505 -999 0.041796 0.23574 -0.965744
2009-04-23 08:46:45 51°13.848 2°48.498 -999 0.040458 0.228047 -0.965744
2009-04-23 08:46:50 51°13.846 2°48.492 -999 0.039944 0.225092 -0.965744
2009-04-23 08:46:55 51°13.844 2°48.485 -999 0.039944 0.225092 -0.965744
2009-04-23 08:47:00 51°13.841 2°48.479 -999 0.040356 0.227468 -0.965744
2009-04-23 08:47:04 51°13.839 2°48.473 -999 0.039841 0.224509 -0.965744
2009-04-23 08:47:10 51°13.836 2°48.465 -999 0.039944 0.225092 -0.965744
2009-04-23 08:47:15 51°13.834 2°48.459 -999 0.040253 0.226863 -0.965744
2009-04-23 08:47:20 51°13.831 2°48.452 -999 0.04087 0.23042 -0.965744
2009-04-23 08:47:24 51°13.829 2°48.447 -999 0.04087 0.23042 -0.965744
2009-04-23 08:47:30 51°13.826 2°48.439 -999 0.039635 0.223318 -0.965744
2009-04-23 08:47:35 51°13.824 2°48.432 -999 0.041179 0.232201 -0.965744
2009-04-23 08:47:40 51°13.822 2°48.426 -999 0.039841 0.224505 -0.965744
2009-04-23 08:47:44 51°13.82 2°48.42 -999 0.04159 0.23458 -0.965744
2009-04-23 08:47:50 51°13.817 2°48.413 -999 0.040047 0.225701 -0.965744
2009-04-23 08:47:55 51°13.814 2°48.406 -999 0.040047 0.225701 -0.965744
2009-04-23 08:48:00 51°13.812 2°48.399 -999 0.039841 0.224517 -0.965744
2009-04-23 08:48:04 51°13.81 2°48.394 -999 0.039635 0.223338 -0.965744
2009-04-23 08:48:10 51°13.808 2°48.386 -999 0.040253 0.226888 -0.965744
2009-04-23 08:48:15 51°13.805 2°48.38 -999 0.041796 0.235792 -0.965744
2009-04-23 08:48:20 51°13.803 2°48.373 -999 0.041385 0.233425 -0.965744
2009-04-23 08:48:24 51°13.801 2°48.368 -999 0.041385 0.233425 -0.965744
2009-04-23 08:48:30 51°13.799 2°48.36 -999 0.039121 0.220403 -0.965744
2009-04-23 08:48:35 51°13.797 2°48.353 -999 0.039121 0.220395 -0.965744
2009-04-23 08:48:40 51°13.794 2°48.347 -999 0.04015 0.226313 -0.965744
2009-04-23 08:48:44 51°13.793 2°48.341 -999 0.040047 0.225725 -0.965744
2009-04-23 08:48:50 51°13.79 2°48.333 -999 0.04159 0.234615 -0.965744
2009-04-23 08:48:55 51°13.788 2°48.327 -999 0.04159 0.234615 -0.965744
2009-04-23 08:49:00 51°13.786 2°48.32 -999 0.042105 0.237585 -0.965744
2009-04-23 08:49:05 51°13.785 2°48.314 -999 0.040561 0.228693 -0.965744
2009-04-23 08:49:10 51°13.783 2°48.307 -999 0.041899 0.236385 -0.965744
2009-04-23 08:49:15 51°13.781 2°48.301 -999 0.042414 0.239343 -0.965744
2009-04-23 08:49:20 51°13.779 2°48.294 -999 0.042414 0.239343 -0.965744
2009-04-23 08:49:24 51°13.778 2°48.289 -999 0.040561 0.22866 -0.965744
2009-04-23 08:49:30 51°13.776 2°48.281 -999 0.039635 0.223326 -0.965744
2009-04-23 08:49:35 51°13.774 2°48.275 -999 0.04015 0.226284 -0.965744
2009-04-23 08:49:40 51°13.772 2°48.268 -999 0.038606 0.217413 -0.965744
2009-04-23 08:49:44 51°13.771 2°48.263 -999 0.038503 0.21683 -0.965744
2009-04-23 08:49:50 51°13.769 2°48.255 -999 0.038915 0.219201 -0.965744
2009-04-23 08:49:55 51°13.767 2°48.249 -999 0.038915 0.219201 -0.965744
2009-04-23 08:50:00 51°13.766 2°48.242 -999 0.038709 0.218035 -0.965744
2009-04-23 08:50:05 51°13.764 2°48.236 -999 0.038092 0.2145 -0.965744
2009-04-23 08:50:10 51°13.763 2°48.229 -999 0.040047 0.225758 -0.965744
2009-04-23 08:50:15 51°13.761 2°48.222 -999 0.039532 0.222824 -0.965744
2009-04-23 08:50:20 51°13.76 2°48.216 -999 0.038812 0.218694 -0.965744
2009-04-23 08:50:24 51°13.759 2°48.21 -999 0.038812 0.218694 -0.965744
2009-04-23 08:50:30 51°13.757 2°48.202 -999 0.039121 0.220471 -0.965744
2009-04-23 08:50:35 51°13.756 2°48.196 -999 0.039224 0.221066 -0.965744
2009-04-23 08:50:40 51°13.755 2°48.189 -999 0.038195 0.215157 -0.965744
2009-04-23 08:50:44 51°13.754 2°48.183 -999 0.037989 0.213976 -0.965744
2009-04-23 08:50:50 51°13.752 2°48.175 -999 0.038606 0.21752 -0.965744
2009-04-23 08:50:55 51°13.751 2°48.168 -999 0.038606 0.21752 -0.965744
2009-04-23 08:51:00 51°13.75 2°48.161 -999 0.04015 0.226396 -0.965744
2009-04-23 08:51:04 51°13.749 2°48.156 -999 0.040356 0.22758 -0.965744
2009-04-23 08:51:10 51°13.748 2°48.147 -999 0.038709 0.218111 -0.965744
2009-04-23 08:51:15 51°13.748 2°48.141 -999 0.038195 0.215149 -0.965744
2009-04-23 08:51:20 51°13.747 2°48.134 -999 0.037783 0.212784 -0.965744
2009-04-23 08:51:24 51°13.746 2°48.129 -999 0.037783 0.212784 -0.965744
2009-04-23 08:51:30 51°13.746 2°48.122 -999 0.03768 0.212194 -0.965744
2009-04-23 08:51:35 51°13.745 2°48.115 -999 0.039738 0.224024 -0.965744
2009-04-23 08:51:40 51°13.744 2°48.109 -999 0.039327 0.221662 -0.965744
2009-04-23 08:51:45 51°13.744 2°48.103 -999 0.039224 0.221074 -0.965744
2009-04-23 08:51:50 51°13.743 2°48.097 -999 0.039841 0.224628 -0.965744
2009-04-23 08:51:55 51°13.743 2°48.092 -999 0.039841 0.224628 -0.965744
2009-04-23 08:52:00 51°13.742 2°48.086 -999 0.040664 0.229382 -0.965744
2009-04-23 08:52:04 51°13.742 2°48.082 -999 0.039841 0.224657 -0.965744
2009-04-23 08:52:10 51°13.741 2°48.075 -999 0.039532 0.222881 -0.965744
2009-04-23 08:52:15 51°13.741 2°48.069 -999 0.038915 0.219325 -0.965744
2009-04-23 08:52:20 51°13.741 2°48.064 -999 0.039327 0.22169 -0.965744
2009-04-23 08:52:25 51°13.74 2°48.058 -999 0.039327 0.22169 -0.965744
2009-04-23 08:52:30 51°13.74 2°48.053 -999 0.040767 0.229983 -0.965744
2009-04-23 08:52:35 51°13.74 2°48.048 -999 0.041179 0.232363 -0.965744
2009-04-23 08:52:40 51°13.739 2°48.043 -999 0.039429 0.222294 -0.965744
2009-04-23 08:52:44 51°13.739 2°48.039 -999 0.039532 0.222889 -0.965744
2009-04-23 08:52:50 51°13.738 2°48.032 -999 0.039532 0.222889 -0.965744
2009-04-23 08:52:55 51°13.738 2°48.027 -999 0.040664 0.229411 -0.965744
2009-04-23 08:53:00 51°13.738 2°48.023 -999 0.040561 0.228819 -0.965744
2009-04-23 08:53:05 51°13.737 2°48.018 -999 0.039018 0.21994 -0.965744
2009-04-23 08:53:10 51°13.737 2°48.013 -999 0.038195 0.215208 -0.965744
2009-04-23 08:53:15 51°13.737 2°48.008 -999 0.038812 0.218746 -0.965744
2009-04-23 08:53:20 51°13.737 2°48.003 -999 0.038606 0.217559 -0.965744
2009-04-23 08:53:25 51°13.736 2°47.999 -999 0.038606 0.217559 -0.965744
2009-04-23 08:53:30 51°13.736 2°47.994 -999 0.03768 0.212244 -0.965744
2009-04-23 08:53:35 51°13.736 2°47.99 -999 0.039121 0.220523 -0.965744
2009-04-23 08:53:40 51°13.736 2°47.986 -999 0.040664 0.22942 -0.965744
2009-04-23 08:53:44 51°13.735 2°47.982 -999 0.040356 0.227651 -0.965744
2009-04-23 08:53:50 51°13.735 2°47.978 -999 0.040047 0.225882 -0.965744
2009-04-23 08:53:55 51°13.735 2°47.974 -999 0.040047 0.225882 -0.965744
2009-04-23 08:54:00 51°13.734 2°47.97 -999 0.043134 0.243696 -0.965744
2009-04-23 08:54:05 51°13.734 2°47.966 -999 0.040561 0.228869 -0.965744
2009-04-23 08:54:10 51°13.734 2°47.963 -999 0.039327 0.221755 -0.965744
2009-04-23 08:54:15 51°13.734 2°47.959 -999 0.039841 0.224714 -0.965744
2009-04-23 08:54:20 51°13.733 2°47.955 -999 0.039841 0.224714 -0.965744
2009-04-23 08:54:24 51°13.733 2°47.953 -999 0.039841 0.224714 -0.965744
2009-04-23 08:54:30 51°13.733 2°47.949 -999 0.042311 0.238951 -0.965744
2009-04-23 08:54:35 51°13.732 2°47.945 -999 0.041076 0.231838 -0.965744
2009-04-23 08:54:40 51°13.732 2°47.942 -999 0.04015 0.226495 -0.965744
2009-04-23 08:54:44 51°13.732 2°47.94 -999 0.039738 0.224118 -0.965744
2009-04-23 08:54:50 51°13.731 2°47.936 -999 0.039738 0.224118 -0.965744
2009-04-23 08:54:55 51°13.731 2°47.933 -999 0.039841 0.224706 -0.965744
2009-04-23 08:55:00 51°13.73 2°47.93 -999 0.040664 0.229445 -0.965744
2009-04-23 08:55:04 51°13.73 2°47.928 -999 0.041179 0.232422 -0.965744
2009-04-23 08:55:10 51°13.73 2°47.924 -999 0.042311 0.23896 -0.965744
2009-04-23 08:55:15 51°13.73 2°47.921 -999 0.041385 0.233617 -0.965744
2009-04-23 08:55:20 51°13.729 2°47.919 -999 0.040047 0.225911 -0.965744
2009-04-23 08:55:25 51°13.729 2°47.916 -999 0.040047 0.225911 -0.965744
2009-04-23 08:55:30 51°13.728 2°47.913 -999 0.040973 0.23124 -0.965744
2009-04-23 08:55:35 51°13.728 2°47.91 -999 0.040047 0.225899 -0.965744
2009-04-23 08:55:40 51°13.728 2°47.907 -999 0.039738 0.224118 -0.965744
2009-04-23 08:55:45 51°13.727 2°47.904 -999 0.039635 0.223526 -0.965744
2009-04-23 08:55:50 51°13.727 2°47.9 -999 0.04015 0.226487 -0.965744
2009-04-23 08:55:55 51°13.726 2°47.895 -999 0.04015 0.226487 -0.965744
2009-04-23 08:56:00 51°13.726 2°47.89 -999 0.042208 0.238357 -0.965744
2009-04-23 08:56:05 51°13.726 2°47.885 -999 0.04087 0.230652 -0.965744
2009-04-23 08:56:10 51°13.727 2°47.88 -999 0.037989 0.214074 -0.965744
2009-04-23 08:56:15 51°13.727 2°47.874 -999 0.038606 0.217615 -0.965744
2009-04-23 08:56:20 51°13.729 2°47.868 -999 0.038092 0.214656 -0.965744
2009-04-23 08:56:25 51°13.73 2°47.862 -999 0.038092 0.214656 -0.965744
2009-04-23 08:56:30 51°13.732 2°47.857 -999 0.039429 0.222351 -0.965744
2009-04-23 08:56:35 51°13.734 2°47.851 -999 0.038812 0.218809 -0.965744
2009-04-23 08:56:40 51°13.737 2°47.846 -999 0.039635 0.223555 -0.965744
2009-04-23 08:56:45 51°13.74 2°47.841 -999 0.04087 0.230686 -0.965744
2009-04-23 08:56:50 51°13.743 2°47.837 -999 0.042825 0.242033 -0.965744
2009-04-23 08:56:55 51°13.747 2°47.833 -999 0.042825 0.242033 -0.965744
2009-04-23 08:57:00 51°13.751 2°47.83 -999 0.042928 0.24265 -0.965744
2009-04-23 08:57:04 51°13.755 2°47.827 -999 0.041076 0.231931 -0.965744
2009-04-23 08:57:10 51°13.761 2°47.825 -999 0.040767 0.230126 -0.965744
2009-04-23 08:57:15 51°13.767 2°47.825 -999 0.04262 0.240826 -0.965744
2009-04-23 08:57:20 51°13.773 2°47.825 -999 0.063716 0.364392 -0.965744
2009-04-23 08:57:25 51°13.779 2°47.827 -999 0.063716 0.364392 -0.965744
2009-04-23 08:57:30 51°13.786 2°47.831 -999 0.090474 0.524711 -0.965744
2009-04-23 08:57:35 51°13.794 2°47.835 -999 0.090988 0.527975 -0.965744
2009-04-23 08:57:40 51°13.803 2°47.839 -999 0.067935 0.389693 -0.965744
2009-04-23 08:57:45 51°13.812 2°47.843 -999 0.056924 0.324428 -0.965744
2009-04-23 08:57:50 51°13.822 2°47.848 -999 0.057439 0.327321 -0.965744
2009-04-23 08:57:55 51°13.833 2°47.852 -999 0.057439 0.327321 -0.965744
2009-04-23 08:58:00 51°13.844 2°47.857 -999 0.055895 0.318246 -0.965744
2009-04-23 08:58:05 51°13.856 2°47.861 -999 0.050235 0.285146 -0.965744
2009-04-23 08:58:10 51°13.868 2°47.866 -999 0.051264 0.291137 -0.965744
2009-04-23 08:58:15 51°13.881 2°47.871 -999 0.049412 0.280344 -0.965744
2009-04-23 08:58:20 51°13.894 2°47.878 -999 0.047148 0.267155 -0.965744
2009-04-23 08:58:24 51°13.905 2°47.882 -999 0.047148 0.267155 -0.965744
2009-04-23 08:58:30 51°13.921 2°47.89 -999 0.047868 0.271336 -0.965744
2009-04-23 08:58:35 51°13.935 2°47.896 -999 0.049 0.277932 -0.965744
2009-04-23 08:58:40 51°13.949 2°47.903 -999 0.045398 0.257012 -0.965744
2009-04-23 08:58:44 51°13.961 2°47.908 -999 0.047559 0.269587 -0.965744
2009-04-23 08:58:50 51°13.979 2°47.917 -999 0.04653 0.263647 -0.965744
2009-04-23 08:58:55 51°13.994 2°47.924 -999 0.04653 0.263647 -0.965744
2009-04-23 08:59:00 51°14.01 2°47.932 -999 0.043443 0.245751 -0.965744
2009-04-23 08:59:05 51°14.025 2°47.939 -999 0.049 0.278061 -0.965744
2009-04-23 08:59:10 51°14.041 2°47.949 -999 0.043854 0.24817 -0.965744
2009-04-23 08:59:15 51°14.056 2°47.957 -999 0.045192 0.255937 -0.965744
2009-04-23 08:59:20 51°14.071 2°47.967 -999 0.046839 0.265504 -0.965744
2009-04-23 08:59:24 51°14.084 2°47.974 -999 0.046839 0.265504 -0.965744
2009-04-23 08:59:30 51°14.102 2°47.986 -999 0.047559 0.269717 -0.965744
2009-04-23 08:59:35 51°14.117 2°47.996 -999 0.047456 0.269158 -0.965744
2009-04-23 08:59:40 51°14.133 2°48.006 -999 0.046736 0.264975 -0.965744
2009-04-23 08:59:44 51°14.145 2°48.014 -999 0.045707 0.258965 -0.965744
2009-04-23 08:59:50 51°14.163 2°48.027 -999 0.04581 0.259543 -0.965744
2009-04-23 08:59:55 51°14.178 2°48.038 -999 0.04581 0.259543 -0.965744
2009-04-23 09:00:00 51°14.194 2°48.048 -999 0.043752 0.247575 -0.965744
2009-04-23 09:00:05 51°14.209 2°48.06 -999 0.045398 0.257088 -0.965744
2009-04-23 09:00:10 51°14.224 2°48.071 -999 0.048691 0.276212 -0.965744
2009-04-23 09:00:15 51°14.239 2°48.082 -999 0.047868 0.271437 -0.965744
2009-04-23 09:00:20 51°14.255 2°48.093 -999 0.046118 0.261257 -0.965744
2009-04-23 09:00:24 51°14.267 2°48.102 -999 0.046118 0.261257 -0.965744
2009-04-23 09:00:30 51°14.285 2°48.115 -999 0.044678 0.252869 -0.965744
2009-04-23 09:00:35 51°14.301 2°48.125 -999 0.044575 0.252255 -0.965744
2009-04-23 09:00:40 51°14.316 2°48.136 -999 0.045501 0.257613 -0.965744
2009-04-23 09:00:45 51°14.331 2°48.147 -999 0.044781 0.253461 -0.965744
2009-04-23 09:00:50 51°14.347 2°48.157 -999 0.044163 0.249912 -0.965744
2009-04-23 09:00:55 51°14.362 2°48.168 -999 0.044163 0.249912 -0.965744
2009-04-23 09:01:00 51°14.378 2°48.179 -999 0.045089 0.255307 -0.965744
2009-04-23 09:01:04 51°14.39 2°48.188 -999 0.047456 0.269093 -0.965744
2009-04-23 09:01:10 51°14.408 2°48.202 -999 0.045295 0.256562 -0.965744
2009-04-23 09:01:15 51°14.424 2°48.213 -999 0.048074 0.272685 -0.965744
2009-04-23 09:01:20 51°14.439 2°48.225 -999 0.04828 0.273887 -0.965744
2009-04-23 09:01:24 51°14.451 2°48.234 -999 0.04828 0.273887 -0.965744
2009-04-23 09:01:30 51°14.469 2°48.249 -999 0.046016 0.260699 -0.965744
2009-04-23 09:01:35 51°14.485 2°48.261 -999 0.046221 0.261879 -0.965744
2009-04-23 09:01:40 51°14.5 2°48.272 -999 0.045501 0.257708 -0.965744
2009-04-23 09:01:44 51°14.512 2°48.282 -999 0.047148 0.267284 -0.965744
2009-04-23 09:01:50 51°14.531 2°48.295 -999 0.044472 0.251788 -0.965744
2009-04-23 09:01:55 51°14.546 2°48.307 -999 0.044472 0.251788 -0.965744
2009-04-23 09:02:00 51°14.561 2°48.318 -999 0.042928 0.242842 -0.965744
2009-04-23 09:02:05 51°14.577 2°48.329 -999 0.045913 0.260164 -0.965744
2009-04-23 09:02:10 51°14.592 2°48.34 -999 0.045295 0.256586 -0.965744
2009-04-23 09:02:15 51°14.608 2°48.35 -999 0.042311 0.239285 -0.965744
2009-04-23 09:02:20 51°14.624 2°48.361 -999 0.042311 0.239303 -0.965744
2009-04-23 09:02:25 51°14.639 2°48.371 -999 0.042311 0.239303 -0.965744
2009-04-23 09:02:30 51°14.655 2°48.381 -999 0.043957 0.248858 -0.965744
2009-04-23 09:02:35 51°14.671 2°48.392 -999 0.042517 0.240555 -0.965744
2009-04-23 09:02:40 51°14.687 2°48.402 -999 0.042208 0.238805 -0.965744
2009-04-23 09:02:44 51°14.699 2°48.41 -999 0.042722 0.241821 -0.965744
2009-04-23 09:02:50 51°14.718 2°48.423 -999 0.043443 0.246041 -0.965744
2009-04-23 09:02:55 51°14.734 2°48.433 -999 0.043443 0.246041 -0.965744
2009-04-23 09:03:00 51°14.749 2°48.444 -999 0.042002 0.23775 -0.965744
2009-04-23 09:03:05 51°14.765 2°48.454 -999 0.042928 0.243151 -0.965744
2009-04-23 09:03:10 51°14.781 2°48.465 -999 0.042825 0.242577 -0.965744
2009-04-23 09:03:15 51°14.796 2°48.475 -999 0.042722 0.241995 -0.965744
2009-04-23 09:03:20 51°14.812 2°48.486 -999 0.044369 0.251545 -0.965744
2009-04-23 09:03:25 51°14.828 2°48.497 -999 0.044369 0.251545 -0.965744
2009-04-23 09:03:30 51°14.843 2°48.507 -999 0.043443 0.246137 -0.965744
2009-04-23 09:03:35 51°14.859 2°48.518 -999 0.042825 0.242497 -0.965744
2009-04-23 09:03:40 51°14.875 2°48.528 -999 0.042722 0.24187 -0.965744
2009-04-23 09:03:44 51°14.887 2°48.536 -999 0.040664 0.229963 -0.965744
2009-04-23 09:03:50 51°14.905 2°48.549 -999 0.044678 0.253225 -0.965744
2009-04-23 09:03:55 51°14.921 2°48.56 -999 0.044678 0.253225 -0.965744
2009-04-23 09:04:00 51°14.937 2°48.571 -999 0.041693 0.235965 -0.965744
2009-04-23 09:04:04 51°14.949 2°48.579 -999 0.041179 0.232999 -0.965744
2009-04-23 09:04:10 51°14.968 2°48.593 -999 0.04581 0.259869 -0.965744
2009-04-23 09:04:15 51°14.983 2°48.604 -999 0.045089 0.255732 -0.965744
2009-04-23 09:04:20 51°14.999 2°48.616 -999 0.042928 0.2432 -0.965744
2009-04-23 09:04:25 51°15.015 2°48.627 -999 0.042928 0.2432 -0.965744
2009-04-23 09:04:30 51°15.03 2°48.638 -999 0.043134 0.244393 -0.965744
2009-04-23 09:04:35 51°15.045 2°48.648 -999 0.044884 0.254551 -0.965744
2009-04-23 09:04:40 51°15.06 2°48.659 -999 0.044781 0.253883 -0.965744
2009-04-23 09:04:45 51°15.075 2°48.669 -999 0.044369 0.251452 -0.965744
2009-04-23 09:04:50 51°15.09 2°48.679 -999 0.045398 0.257397 -0.965744
2009-04-23 09:04:55 51°15.104 2°48.689 -999 0.045398 0.257397 -0.965744
2009-04-23 09:05:00 51°15.118 2°48.699 -999 0.044369 0.251401 -0.965744
2009-04-23 09:05:05 51°15.132 2°48.71 -999 0.044781 0.253784 -0.965744
2009-04-23 09:05:10 51°15.146 2°48.72 -999 0.042928 0.243057 -1.000568
2009-04-23 09:05:15 51°15.159 2°48.73 -999 0.047765 0.27117 -0.965744
2009-04-23 09:05:20 51°15.173 2°48.74 -999 0.04406 0.249666 -0.965744
2009-04-23 09:05:25 51°15.186 2°48.75 -999 0.04406 0.249666 -0.965744
2009-04-23 09:05:30 51°15.2 2°48.76 -999 0.045707 0.259228 -0.965744
2009-04-23 09:05:35 51°15.213 2°48.77 -999 0.045707 0.259257 -0.965744
2009-04-23 09:05:40 51°15.227 2°48.781 -999 0.04406 0.249721 -0.965744
2009-04-23 09:05:45 51°15.24 2°48.791 -999 0.043546 0.246765 -0.93092
2009-04-23 09:05:50 51°15.254 2°48.801 -999 0.043649 0.247385 -0.965744
2009-04-23 09:05:55 51°15.267 2°48.811 -999 0.043649 0.247385 -0.965744
2009-04-23 09:06:00 51°15.28 2°48.821 -999 0.045604 0.258779 -0.965744
2009-04-23 09:06:04 51°15.291 2°48.829 -999 0.046016 0.261221 -0.965744
2009-04-23 09:06:10 51°15.307 2°48.841 -999 0.043649 0.247476 -0.965744
2009-04-23 09:06:15 51°15.32 2°48.852 -999 0.047456 0.269648 -0.965744
2009-04-23 09:06:20 51°15.333 2°48.863 -999 0.051161 0.291437 -0.965744
2009-04-23 09:06:24 51°15.344 2°48.872 -999 0.051161 0.291437 -0.965744
2009-04-23 09:06:30 51°15.359 2°48.883 -999 0.039738 0.224916 -0.965744
2009-04-23 09:06:35 51°15.372 2°48.893 -999 0.04972 0.282883 -0.965744
2009-04-23 09:06:40 51°15.385 2°48.904 -999 0.046839 0.266081 -0.965744
2009-04-23 09:06:45 51°15.398 2°48.914 -999 0.046633 0.264853 -0.965744
2009-04-23 09:06:50 51°15.411 2°48.924 -999 0.045295 0.257013 -0.965744
2009-04-23 09:06:55 51°15.424 2°48.934 -999 0.045295 0.257013 -0.965744
2009-04-23 09:07:00 51°15.437 2°48.943 -999 0.050338 0.286433 -0.965744
2009-04-23 09:07:05 51°15.45 2°48.953 -999 0.04581 0.260014 -0.965744
2009-04-23 09:07:10 51°15.463 2°48.963 -999 0.042722 0.242062 -0.965744
2009-04-23 09:07:15 51°15.476 2°48.972 -999 0.046427 0.263557 -0.965744
2009-04-23 09:07:20 51°15.489 2°48.982 -999 0.046221 0.262355 -0.965744
2009-04-23 09:07:25 51°15.502 2°48.992 -999 0.046221 0.262355 -0.965744
2009-04-23 09:07:30 51°15.516 2°49.001 -999 0.042722 0.242053 -0.965744
2009-04-23 09:07:35 51°15.529 2°49.01 -999 0.041693 0.236108 -0.965744
2009-04-23 09:07:40 51°15.542 2°49.02 -999 0.039327 0.222413 -0.965744
2009-04-23 09:07:45 51°15.555 2°49.03 -999 0.042825 0.242649 -0.965744
2009-04-23 09:07:50 51°15.567 2°49.041 -999 0.04334 0.245631 -0.965744
2009-04-23 09:07:55 51°15.579 2°49.053 -999 0.04334 0.245631 -0.965744
2009-04-23 09:08:00 51°15.591 2°49.066 -999 0.047971 0.272647 -0.965744
2009-04-23 09:08:05 51°15.602 2°49.08 -999 0.047148 0.267929 -0.965744
2009-04-23 09:08:10 51°15.613 2°49.095 -999 0.050441 0.287232 -0.965744
2009-04-23 09:08:15 51°15.624 2°49.11 -999 0.051367 0.292762 -0.965744